M I D A S
Marine Information and Data Acquisition System
Tripno 1098 of the Zeeleeuw from 2006-03-21 08:03:09 to 2006-03-21 13:01:36
Back to CruiseResearch ActivitiesStationsMapUnderway DataData graphs

EquipmentUnitsComment
TimeDGPSUTC
LatitudeDGPSDM.mWGS84
LongitudeDGPSDM.mWGS84
TemperatureSBE03/SBE38deg celciusITS90
ConductivitySBE21S/mITS90
SalinitySBE21 Practical Salinity Units
ChlorophylAChelsea fluorimeterg/lCalibrated in Aceton
Missing or incorrect values are displayed as -999
Sea surface data collected by the RV Zeeleeuw from 2006-03-21 07:48:32 to 2006-03-21 13:15:32
                                                                                    Next 1000 lines
Time Latitude Longitude Temperature Conductivity Salinity ChlorophylA
2006-03-21 07:48:41 51°13.6 2°56.095 -999 3.594307 26.109403 22.073725
2006-03-21 07:48:47 51°13.601 2°56.095 -999 3.594307 26.109403 22.073725
2006-03-21 07:48:51 51°13.602 2°56.095 -999 3.594307 26.109898 22.073725
2006-03-21 07:48:57 51°13.602 2°56.095 -999 3.594307 26.109403 22.073725
2006-03-21 07:49:01 51°13.602 2°56.096 -999 3.594203 26.109064 22.107435
2006-03-21 07:49:07 51°13.602 2°56.096 -999 3.594203 26.109064 22.073725
2006-03-21 07:49:12 51°13.601 2°56.095 -999 3.594203 26.109064 22.073725
2006-03-21 07:49:17 51°13.601 2°56.095 -999 3.594203 26.109559 22.073725
2006-03-21 07:49:21 51°13.601 2°56.095 -999 3.594203 26.109064 22.073725
2006-03-21 07:49:27 51°13.601 2°56.095 -999 3.594203 26.109064 22.073725
2006-03-21 07:49:32 51°13.601 2°56.095 -999 3.594203 26.109064 22.073725
2006-03-21 07:49:37 51°13.6 2°56.095 -999 3.594203 26.109064 22.073725
2006-03-21 07:49:42 51°13.6 2°56.095 -999 3.594203 26.109064 22.073725
2006-03-21 07:49:47 51°13.6 2°56.095 -999 3.594203 26.109064 22.040016
2006-03-21 07:49:52 51°13.599 2°56.095 -999 3.594203 26.109064 22.040016
2006-03-21 07:49:57 51°13.599 2°56.095 -999 3.594203 26.109064 22.040016
2006-03-21 07:50:01 51°13.599 2°56.095 -999 3.5941 26.108231 22.040016
2006-03-21 07:50:07 51°13.599 2°56.095 -999 3.5941 26.108725 22.040016
2006-03-21 07:50:12 51°13.599 2°56.095 -999 3.5941 26.108725 22.040016
2006-03-21 07:50:17 51°13.599 2°56.095 -999 3.5941 26.108725 22.040016
2006-03-21 07:50:21 51°13.599 2°56.095 -999 3.5941 26.108725 22.040016
2006-03-21 07:50:27 51°13.599 2°56.095 -999 3.5941 26.108725 22.040016
2006-03-21 07:50:32 51°13.599 2°56.095 -999 3.5941 26.108725 22.040016
2006-03-21 07:50:37 51°13.599 2°56.095 -999 3.5941 26.108725 22.040016
2006-03-21 07:50:41 51°13.599 2°56.095 -999 3.5941 26.108725 22.040016
2006-03-21 07:50:47 51°13.599 2°56.095 -999 3.5941 26.108725 22.040016
2006-03-21 07:50:52 51°13.599 2°56.095 -999 3.593996 26.107892 22.006306
2006-03-21 07:50:57 51°13.599 2°56.095 -999 3.593996 26.107892 22.040016
2006-03-21 07:51:02 51°13.599 2°56.095 -999 3.593996 26.107892 22.040016
2006-03-21 07:51:07 51°13.599 2°56.095 -999 3.593996 26.107892 22.006306
2006-03-21 07:51:12 51°13.599 2°56.095 -999 3.593996 26.107892 22.006306
2006-03-21 07:51:17 51°13.599 2°56.095 -999 3.593996 26.107892 22.006306
2006-03-21 07:51:21 51°13.599 2°56.095 -999 3.593996 26.107892 22.006306
2006-03-21 07:51:27 51°13.599 2°56.095 -999 3.593996 26.107892 22.006306
2006-03-21 07:51:32 51°13.599 2°56.095 -999 3.593996 26.107892 22.006306
2006-03-21 07:51:37 51°13.599 2°56.095 -999 3.593893 26.107553 22.006306
2006-03-21 07:51:41 51°13.599 2°56.095 -999 3.593893 26.107553 22.006306
2006-03-21 07:51:47 51°13.599 2°56.095 -999 3.593996 26.108386 22.006306
2006-03-21 07:51:51 51°13.599 2°56.095 -999 3.593893 26.107553 21.972597
2006-03-21 07:51:57 51°13.599 2°56.095 -999 3.593893 26.107553 21.972597
2006-03-21 07:52:01 51°13.599 2°56.095 -999 3.593893 26.107553 21.972597
2006-03-21 07:52:07 51°13.599 2°56.095 -999 3.593893 26.107553 21.972597
2006-03-21 07:52:12 51°13.599 2°56.095 -999 3.593893 26.107553 21.972597
2006-03-21 07:52:17 51°13.599 2°56.095 -999 3.593893 26.107553 21.972597
2006-03-21 07:52:21 51°13.599 2°56.095 -999 3.593893 26.107553 21.972597
2006-03-21 07:52:27 51°13.599 2°56.095 -999 3.593893 26.107058 21.972597
2006-03-21 07:52:31 51°13.599 2°56.095 -999 3.593893 26.107553 21.972597
2006-03-21 07:52:37 51°13.599 2°56.095 -999 3.593893 26.107553 21.972597
2006-03-21 07:52:41 51°13.599 2°56.095 -999 3.593893 26.107553 21.972597
2006-03-21 07:52:47 51°13.599 2°56.095 -999 3.593789 26.106719 21.972597
2006-03-21 07:52:52 51°13.599 2°56.095 -999 3.593064 26.101378 22.242272
2006-03-21 07:52:57 51°13.599 2°56.095 -999 3.246786 23.21794 29.051571
2006-03-21 07:53:01 51°13.599 2°56.095 -999 3.579393 25.920162 27.062717
2006-03-21 07:53:07 51°13.599 2°56.094 -999 3.245757 23.524406 41.288084
2006-03-21 07:53:12 51°13.599 2°56.094 -999 3.245757 23.524406 41.288084
2006-03-21 07:53:17 51°13.599 2°56.094 -999 3.373808 26.110002 29.186409
2006-03-21 07:53:21 51°13.599 2°56.094 -999 3.379121 28.283621 25.17499
2006-03-21 07:53:27 51°13.598 2°56.094 -999 3.341878 29.375962 22.95017
2006-03-21 07:53:32 51°13.598 2°56.094 -999 3.157176 28.911011 21.770341
2006-03-21 07:53:37 51°13.597 2°56.094 -999 3.01091 28.208906 20.421965
2006-03-21 07:53:41 51°13.597 2°56.094 -999 3.01091 28.208906 20.421965
2006-03-21 07:53:47 51°13.597 2°56.094 -999 2.885263 27.336888 19.646648
2006-03-21 07:53:52 51°13.597 2°56.094 -999 2.836565 27.107099 19.208426
2006-03-21 07:53:57 51°13.596 2°56.094 -999 2.795729 26.870205 18.803913
2006-03-21 07:54:01 51°13.596 2°56.094 -999 2.76637 26.676905 18.500529
2006-03-21 07:54:06 51°13.596 2°56.094 -999 2.744146 26.551867 18.197144
2006-03-21 07:54:11 51°13.596 2°56.094 -999 2.744146 26.551867 18.197144
2006-03-21 07:54:17 51°13.595 2°56.094 -999 2.725436 26.428949 17.927469
2006-03-21 07:54:21 51°13.595 2°56.094 -999 2.721612 26.427831 17.657794
2006-03-21 07:54:27 51°13.595 2°56.094 -999 2.705487 26.29947 17.421828
2006-03-21 07:54:32 51°13.595 2°56.094 -999 2.704764 26.332864 17.185862
2006-03-21 07:54:37 51°13.595 2°56.094 -999 2.695255 26.264189 16.916187
2006-03-21 07:54:41 51°13.595 2°56.094 -999 2.695255 26.264189 16.916187
2006-03-21 07:54:47 51°13.595 2°56.094 -999 2.692982 26.259301 16.71393
2006-03-21 07:54:52 51°13.595 2°56.094 -999 2.694222 26.283452 16.477965
2006-03-21 07:54:57 51°13.595 2°56.094 -999 2.689984 26.23581 16.309418
2006-03-21 07:55:02 51°13.595 2°56.094 -999 2.689778 26.249484 16.107161
2006-03-21 07:55:07 51°13.596 2°56.094 -999 2.695359 26.331892 15.938614
2006-03-21 07:55:12 51°13.596 2°56.094 -999 2.695359 26.331892 15.938614
2006-03-21 07:55:17 51°13.595 2°56.094 -999 2.692879 26.319016 15.770067
2006-03-21 07:55:22 51°13.595 2°56.094 -999 2.687918 26.281624 15.60152
2006-03-21 07:55:27 51°13.595 2°56.094 -999 2.685954 26.272829 15.432973
2006-03-21 07:55:31 51°13.595 2°56.094 -999 2.685541 26.278538 15.331845
2006-03-21 07:55:37 51°13.595 2°56.094 -999 2.674068 26.165923 15.163298
2006-03-21 07:55:41 51°13.595 2°56.093 -999 2.674068 26.165923 15.163298
2006-03-21 07:55:47 51°13.595 2°56.093 -999 2.678823 26.228695 15.06217
2006-03-21 07:55:52 51°13.595 2°56.093 -999 2.671071 26.163313 14.927332
2006-03-21 07:55:57 51°13.595 2°56.094 -999 2.68058 26.291239 14.826204
2006-03-21 07:56:01 51°13.595 2°56.094 -999 2.627353 25.743432 14.758785
2006-03-21 07:56:07 51°13.595 2°56.094 -999 2.700736 26.582439 14.657657
2006-03-21 07:56:11 51°13.595 2°56.095 -999 2.700736 26.582439 14.657657
2006-03-21 07:56:17 51°13.595 2°56.095 -999 2.697429 26.583556 14.556529
2006-03-21 07:56:21 51°13.595 2°56.095 -999 2.689574 26.551599 14.48911
2006-03-21 07:56:27 51°13.594 2°56.096 -999 2.683167 26.538266 14.4554
2006-03-21 07:56:32 51°13.594 2°56.096 -999 2.685545 26.644583 14.421691
2006-03-21 07:56:37 51°13.593 2°56.097 -999 2.681101 26.666388 14.387982
2006-03-21 07:56:41 51°13.593 2°56.097 -999 2.681101 26.666388 14.387982
2006-03-21 07:56:46 51°13.593 2°56.097 -999 2.675934 26.684919 14.320563
2006-03-21 07:56:52 51°13.593 2°56.097 -999 2.67149 26.703232 14.286853
2006-03-21 07:56:57 51°13.593 2°56.097 -999 2.667977 26.712214 14.253144
2006-03-21 07:57:01 51°13.593 2°56.097 -999 2.66405 26.72579 14.219435
2006-03-21 07:57:07 51°13.593 2°56.097 -999 2.660433 26.742872 14.152016
2006-03-21 07:57:11 51°13.592 2°56.097 -999 2.660433 26.742872 14.152016
2006-03-21 07:57:17 51°13.593 2°56.097 -999 2.657229 26.755459 14.118306
2006-03-21 07:57:22 51°13.593 2°56.097 -999 2.653819 26.771171 14.084597
2006-03-21 07:57:27 51°13.593 2°56.097 -999 2.650512 26.778134 14.050888
2006-03-21 07:57:32 51°13.592 2°56.097 -999 2.648136 26.793174 14.017178
2006-03-21 07:57:37 51°13.592 2°56.097 -999 2.645759 26.814437 13.983469
2006-03-21 07:57:41 51°13.592 2°56.098 -999 2.645759 26.814437 13.983469
2006-03-21 07:57:47 51°13.592 2°56.098 -999 2.643176 26.831159 13.949759
2006-03-21 07:57:52 51°13.592 2°56.098 -999 2.640799 26.835547 13.882341
2006-03-21 07:57:57 51°13.593 2°56.098 -999 2.640696 26.862282 13.882341
2006-03-21 07:58:01 51°13.593 2°56.098 -999 2.638939 26.879108 13.848631
2006-03-21 07:58:07 51°13.593 2°56.098 -999 2.637803 26.898265 13.814922
2006-03-21 07:58:12 51°13.593 2°56.098 -999 2.637803 26.898265 13.814922
2006-03-21 07:58:17 51°13.593 2°56.098 -999 2.637907 26.92593 13.781212
2006-03-21 07:58:22 51°13.593 2°56.098 -999 2.638424 26.965337 13.781212
2006-03-21 07:58:27 51°13.594 2°56.098 -999 2.638424 27.006095 13.747503
2006-03-21 07:58:32 51°13.594 2°56.098 -999 2.638424 27.032815 13.680084
2006-03-21 07:58:37 51°13.594 2°56.098 -999 2.638321 27.055271 13.646375
2006-03-21 07:58:42 51°13.594 2°56.098 -999 2.638321 27.055271 13.646375
2006-03-21 07:58:47 51°13.594 2°56.098 -999 2.638218 27.065932 13.578956
2006-03-21 07:58:52 51°13.594 2°56.098 -999 2.638218 27.076979 13.578956
2006-03-21 07:58:57 51°13.594 2°56.098 -999 2.637908 27.087695 13.545247
2006-03-21 07:59:02 51°13.594 2°56.098 -999 2.637392 27.09688 13.511537
2006-03-21 07:59:07 51°13.594 2°56.098 -999 2.637185 27.114331 13.511537
2006-03-21 07:59:12 51°13.594 2°56.098 -999 2.636462 27.128343 13.477828
2006-03-21 07:59:17 51°13.594 2°56.098 -999 2.636462 27.128343 13.477828
2006-03-21 07:59:21 51°13.595 2°56.098 -999 2.635635 27.134856 13.444118
2006-03-21 07:59:27 51°13.595 2°56.098 -999 2.634809 27.140584 13.444118
2006-03-21 07:59:31 51°13.595 2°56.098 -999 2.634292 27.154605 13.410409
2006-03-21 07:59:37 51°13.595 2°56.098 -999 2.633982 27.166214 13.3767
2006-03-21 07:59:41 51°13.595 2°56.098 -999 2.633982 27.166214 13.3767
2006-03-21 07:59:47 51°13.595 2°56.097 -999 2.633052 27.168409 13.34299
2006-03-21 07:59:52 51°13.595 2°56.097 -999 2.632019 27.154295 13.275571
2006-03-21 07:59:56 51°13.595 2°56.097 -999 2.630985 27.133819 13.241862
2006-03-21 08:00:01 51°13.595 2°56.097 -999 2.630572 27.115618 13.174443
2006-03-21 08:00:07 51°13.595 2°56.097 -999 2.631088 27.111147 13.140734
2006-03-21 08:00:12 51°13.595 2°56.097 -999 2.631088 27.111147 13.140734
2006-03-21 08:00:16 51°13.595 2°56.097 -999 2.631398 27.111484 13.140734
2006-03-21 08:00:21 51°13.595 2°56.097 -999 2.632122 27.126829 13.107024
2006-03-21 08:00:27 51°13.595 2°56.097 -999 2.632742 27.141807 13.107024
2006-03-21 08:00:32 51°13.596 2°56.097 -999 2.632329 27.156219 13.107024
2006-03-21 08:00:37 51°13.596 2°56.097 -999 2.631915 27.166667 13.073315
2006-03-21 08:00:41 51°13.596 2°56.097 -999 2.631915 27.166667 13.073315
2006-03-21 08:00:47 51°13.596 2°56.097 -999 2.631606 27.170324 13.039606
2006-03-21 08:00:51 51°13.596 2°56.097 -999 2.631812 27.175063 13.005896
2006-03-21 08:00:57 51°13.596 2°56.097 -999 2.632019 27.178207 13.005896
2006-03-21 08:01:02 51°13.596 2°56.097 -999 2.632329 27.187314 12.972187
2006-03-21 08:01:07 51°13.596 2°56.097 -999 2.632432 27.19248 12.938477
2006-03-21 08:01:12 51°13.596 2°56.097 -999 2.632329 27.193702 12.904768
2006-03-21 08:01:17 51°13.596 2°56.097 -999 2.632329 27.193702 12.904768
2006-03-21 08:01:21 51°13.596 2°56.097 -999 2.632329 27.200093 12.904768
2006-03-21 08:01:27 51°13.596 2°56.097 -999 2.632433 27.203664 12.904768
2006-03-21 08:01:31 51°13.596 2°56.097 -999 2.632639 27.20921 12.871059
2006-03-21 08:01:37 51°13.596 2°56.097 -999 2.632846 27.214758 12.837349
2006-03-21 08:01:42 51°13.596 2°56.097 -999 2.632846 27.214758 12.837349
2006-03-21 08:01:47 51°13.596 2°56.097 -999 2.633053 27.223507 12.80364
2006-03-21 08:01:52 51°13.596 2°56.097 -999 2.633156 27.230285 12.80364
2006-03-21 08:01:57 51°13.596 2°56.096 -999 2.633156 27.23589 12.80364
2006-03-21 08:02:01 51°13.596 2°56.096 -999 2.63326 27.238668 12.76993
2006-03-21 08:02:07 51°13.596 2°56.096 -999 2.633466 27.240217 12.76993
2006-03-21 08:02:12 51°13.596 2°56.096 -999 2.633466 27.240217 12.76993
2006-03-21 08:02:17 51°13.596 2°56.096 -999 2.633466 27.246628 12.736221
2006-03-21 08:02:22 51°13.596 2°56.096 -999 2.633466 27.248231 12.702512
2006-03-21 08:02:27 51°13.596 2°56.097 -999 2.633776 27.250956 12.702512
2006-03-21 08:02:32 51°13.596 2°56.097 -999 2.634087 27.258493 12.668802
2006-03-21 08:02:37 51°13.596 2°56.097 -999 2.63419 27.266087 12.668802
2006-03-21 08:02:42 51°13.596 2°56.096 -999 2.634293 27.26967 12.668802
2006-03-21 08:02:47 51°13.596 2°56.096 -999 2.634293 27.26967 12.668802
2006-03-21 08:02:52 51°13.596 2°56.096 -999 2.6345 27.276037 12.635093
2006-03-21 08:02:57 51°13.596 2°56.096 -999 2.63481 27.281173 12.635093
2006-03-21 08:03:02 51°13.596 2°56.096 -999 2.635017 27.287543 12.601383
2006-03-21 08:03:07 51°13.596 2°56.096 -999 2.635327 27.29268 12.601383
2006-03-21 08:03:12 51°13.596 2°56.095 -999 2.635327 27.29268 12.601383
2006-03-21 08:03:17 51°13.596 2°56.093 -999 2.635947 27.298134 12.567674
2006-03-21 08:03:21 51°13.597 2°56.091 -999 2.636464 27.305626 12.567674
2006-03-21 08:03:27 51°13.597 2°56.088 -999 2.636877 27.311943 12.567674
2006-03-21 08:03:31 51°13.598 2°56.086 -999 2.637084 27.31671 12.567674
2006-03-21 08:03:37 51°13.599 2°56.082 -999 2.636877 27.315965 12.533965
2006-03-21 08:03:41 51°13.6 2°56.079 -999 2.636877 27.315965 12.533965
2006-03-21 08:03:47 51°13.601 2°56.075 -999 2.636671 27.311197 12.533965
2006-03-21 08:03:52 51°13.602 2°56.071 -999 2.636257 27.302469 12.533965
2006-03-21 08:03:58 51°13.604 2°56.065 -999 2.6314 27.243952 12.567674
2006-03-21 08:04:02 51°13.605 2°56.062 -999 2.623338 27.140221 12.635093
2006-03-21 08:04:07 51°13.606 2°56.057 -999 2.61321 27.009162 13.208153
2006-03-21 08:04:12 51°13.607 2°56.052 -999 2.61321 27.009162 13.208153
2006-03-21 08:04:17 51°13.608 2°56.046 -999 2.610523 26.981017 13.444118
2006-03-21 08:04:22 51°13.61 2°56.041 -999 2.613314 27.023846 13.578956
2006-03-21 08:04:28 51°13.611 2°56.034 -999 2.617551 27.083172 13.680084
2006-03-21 08:04:32 51°13.613 2°56.029 -999 2.621168 27.134701 13.713794
2006-03-21 08:04:37 51°13.615 2°56.023 -999 2.623959 27.176063 13.713794
2006-03-21 08:04:42 51°13.617 2°56.016 -999 2.626749 27.216658 13.646375
2006-03-21 08:04:47 51°13.619 2°56.01 -999 2.626749 27.216658 13.646375
2006-03-21 08:04:52 51°13.621 2°56.003 -999 2.629126 27.246949 13.578956
2006-03-21 08:04:57 51°13.623 2°55.995 -999 2.632227 27.289519 13.511537
2006-03-21 08:05:02 51°13.625 2°55.988 -999 2.634294 27.319526 13.444118
2006-03-21 08:05:08 51°13.627 2°55.979 -999 2.635741 27.342476 13.410409
2006-03-21 08:05:12 51°13.629 2°55.972 -999 2.635741 27.342476 13.410409
2006-03-21 08:05:17 51°13.631 2°55.964 -999 2.635948 27.351288 13.309281
2006-03-21 08:05:22 51°13.633 2°55.956 -999 2.634604 27.339993 13.275571
2006-03-21 08:05:28 51°13.636 2°55.946 -999 2.633984 27.336144 13.208153
2006-03-21 08:05:32 51°13.638 2°55.939 -999 2.633364 27.332295 13.140734
2006-03-21 08:05:37 51°13.641 2°55.931 -999 2.632434 27.325713 13.107024
2006-03-21 08:05:42 51°13.643 2°55.923 -999 2.632434 27.325713 13.107024
2006-03-21 08:05:47 51°13.646 2°55.914 -999 2.630987 27.312424 13.073315
2006-03-21 08:05:52 51°13.649 2°55.906 -999 2.627887 27.28026 13.039606
2006-03-21 08:05:57 51°13.652 2°55.898 -999 2.625096 27.250024 13.005896
2006-03-21 08:06:02 51°13.654 2°55.889 -999 2.621892 27.215071 12.972187
2006-03-21 08:06:07 51°13.657 2°55.881 -999 2.618689 27.183331 12.972187
2006-03-21 08:06:12 51°13.66 2°55.874 -999 2.618689 27.183331 12.972187
2006-03-21 08:06:18 51°13.664 2°55.864 -999 2.614865 27.14451 12.938477
2006-03-21 08:06:22 51°13.667 2°55.857 -999 2.610214 27.09545 12.904768
2006-03-21 08:06:28 51°13.672 2°55.847 -999 2.605461 27.042812 12.904768
2006-03-21 08:06:32 51°13.675 2°55.841 -999 2.599467 26.974442 12.871059
2006-03-21 08:06:37 51°13.679 2°55.832 -999 2.592543 26.89549 12.871059
2006-03-21 08:06:42 51°13.683 2°55.823 -999 2.585102 26.813056 12.837349
2006-03-21 08:06:48 51°13.689 2°55.812 -999 2.585102 26.813056 12.837349
2006-03-21 08:06:52 51°13.692 2°55.805 -999 2.582105 26.780485 12.837349
2006-03-21 08:06:57 51°13.696 2°55.797 -999 2.581175 26.775426 12.871059
2006-03-21 08:07:02 51°13.7 2°55.788 -999 2.583449 26.805302 12.904768
2006-03-21 08:07:08 51°13.705 2°55.779 -999 2.587996 26.858737 12.938477
2006-03-21 08:07:12 51°13.708 2°55.772 -999 2.587996 26.858737 12.938477
2006-03-21 08:07:17 51°13.712 2°55.764 -999 2.593473 26.924394 12.938477
2006-03-21 08:07:22 51°13.715 2°55.757 -999 2.599674 26.996744 12.904768
2006-03-21 08:07:27 51°13.719 2°55.75 -999 2.603497 27.039589 12.904768
2006-03-21 08:07:32 51°13.721 2°55.744 -999 2.606391 27.071823 12.904768
2006-03-21 08:07:37 51°13.723 2°55.74 -999 2.608251 27.094663 12.871059
2006-03-21 08:07:42 51°13.725 2°55.736 -999 2.608251 27.094663 12.871059
2006-03-21 08:07:47 51°13.726 2°55.733 -999 2.605151 27.064068 12.871059
2006-03-21 08:07:52 51°13.726 2°55.732 -999 2.600294 27.008613 12.837349
2006-03-21 08:07:57 51°13.726 2°55.731 -999 2.593473 26.931561 12.837349
2006-03-21 08:08:02 51°13.726 2°55.731 -999 2.588203 26.873013 12.837349
2006-03-21 08:08:07 51°13.725 2°55.732 -999 2.584793 26.834107 12.80364
2006-03-21 08:08:12 51°13.725 2°55.734 -999 2.581796 26.800715 12.837349
2006-03-21 08:08:17 51°13.724 2°55.737 -999 2.581796 26.800715 12.837349
2006-03-21 08:08:22 51°13.724 2°55.74 -999 2.579316 26.77322 12.904768
2006-03-21 08:08:27 51°13.724 2°55.743 -999 2.578179 26.761047 13.039606
2006-03-21 08:08:32 51°13.723 2°55.746 -999 2.577146 26.750053 13.174443
2006-03-21 08:08:37 51°13.724 2°55.748 -999 2.576319 26.741416 13.208153
2006-03-21 08:08:42 51°13.724 2°55.75 -999 2.576319 26.741416 13.208153
2006-03-21 08:08:47 51°13.723 2°55.75 -999 2.575802 26.734733 13.241862
2006-03-21 08:08:52 51°13.723 2°55.75 -999 2.574975 26.726096 13.275571
2006-03-21 08:08:57 51°13.723 2°55.749 -999 2.574149 26.715879 13.275571
2006-03-21 08:09:02 51°13.723 2°55.747 -999 2.571049 26.681321 13.3767
2006-03-21 08:09:08 51°13.723 2°55.745 -999 2.564642 26.60986 13.410409
2006-03-21 08:09:12 51°13.722 2°55.742 -999 2.564642 26.60986 13.410409
2006-03-21 08:09:17 51°13.722 2°55.739 -999 2.559165 26.545873 13.3767
2006-03-21 08:09:22 51°13.721 2°55.734 -999 2.554928 26.496819 13.34299
2006-03-21 08:09:28 51°13.721 2°55.73 -999 2.551725 26.459549 13.309281
2006-03-21 08:09:32 51°13.721 2°55.726 -999 2.547798 26.413268 13.275571
2006-03-21 08:09:37 51°13.72 2°55.723 -999 2.543769 26.365827 13.241862
2006-03-21 08:09:42 51°13.72 2°55.72 -999 2.543769 26.365827 13.241862
2006-03-21 08:09:47 51°13.72 2°55.718 -999 2.540462 26.328969 13.241862
2006-03-21 08:09:53 51°13.72 2°55.716 -999 2.538395 26.306226 13.241862
2006-03-21 08:09:57 51°13.72 2°55.716 -999 2.538085 26.30192 13.241862
2006-03-21 08:10:02 51°13.72 2°55.716 -999 2.540359 26.330908 13.241862
2006-03-21 08:10:07 51°13.721 2°55.716 -999 2.544389 26.377566 13.241862
2006-03-21 08:10:12 51°13.721 2°55.717 -999 2.544389 26.377566 13.241862
2006-03-21 08:10:17 51°13.722 2°55.718 -999 2.551105 26.454835 13.208153
2006-03-21 08:10:22 51°13.724 2°55.719 -999 2.556582 26.520362 13.208153
2006-03-21 08:10:27 51°13.725 2°55.72 -999 2.559475 26.552547 13.208153
2006-03-21 08:10:32 51°13.727 2°55.721 -999 2.559682 26.55726 13.174443
2006-03-21 08:10:37 51°13.728 2°55.722 -999 2.558028 26.539988 13.174443
2006-03-21 08:10:42 51°13.729 2°55.722 -999 2.558028 26.539988 13.174443
2006-03-21 08:10:47 51°13.73 2°55.722 -999 2.553895 26.491318 13.174443
2006-03-21 08:10:52 51°13.73 2°55.721 -999 2.550175 26.447373 13.174443
2006-03-21 08:10:57 51°13.729 2°55.72 -999 2.545112 26.389705 13.140734
2006-03-21 08:11:02 51°13.728 2°55.719 -999 2.539325 26.32304 13.140734
2006-03-21 08:11:07 51°13.727 2°55.717 -999 2.533849 26.258373 13.140734
2006-03-21 08:11:12 51°13.725 2°55.715 -999 2.533849 26.258373 13.140734
2006-03-21 08:11:17 51°13.723 2°55.713 -999 2.529303 26.20509 13.140734
2006-03-21 08:11:22 51°13.721 2°55.712 -999 2.525376 26.161199 13.140734
2006-03-21 08:11:27 51°13.72 2°55.71 -999 2.522793 26.131818 13.174443
2006-03-21 08:11:32 51°13.72 2°55.709 -999 2.521036 26.110296 13.174443
2006-03-21 08:11:37 51°13.72 2°55.708 -999 2.519797 26.097741 13.174443
2006-03-21 08:11:42 51°13.72 2°55.707 -999 2.519383 26.094585 13.174443
2006-03-21 08:11:47 51°13.721 2°55.707 -999 2.519383 26.094585 13.174443
2006-03-21 08:11:52 51°13.723 2°55.706 -999 2.520623 26.108686 13.208153
2006-03-21 08:11:57 51°13.725 2°55.705 -999 2.52455 26.154118 13.275571
2006-03-21 08:12:02 51°13.727 2°55.704 -999 2.530336 26.219948 13.309281
2006-03-21 08:12:08 51°13.731 2°55.701 -999 2.533332 26.255601 13.34299
2006-03-21 08:12:12 51°13.735 2°55.699 -999 2.533332 26.255601 13.34299
2006-03-21 08:12:17 51°13.739 2°55.696 -999 2.535399 26.279122 13.3767
2006-03-21 08:12:22 51°13.744 2°55.692 -999 2.503161 25.913257 13.34299
2006-03-21 08:12:27 51°13.75 2°55.688 -999 2.500062 25.8811 13.34299
2006-03-21 08:12:32 51°13.756 2°55.683 -999 2.529923 26.220676 13.34299
2006-03-21 08:12:37 51°13.763 2°55.678 -999 2.527959 26.195233 13.34299
2006-03-21 08:12:42 51°13.77 2°55.673 -999 2.527959 26.195233 13.34299
2006-03-21 08:12:47 51°13.777 2°55.668 -999 2.525376 26.165069 13.309281
2006-03-21 08:12:52 51°13.785 2°55.662 -999 2.52114 26.116107 13.309281
2006-03-21 08:12:57 51°13.794 2°55.656 -999 2.520416 26.104791 13.410409
2006-03-21 08:13:02 51°13.803 2°55.649 -999 2.523103 26.135343 13.612665
2006-03-21 08:13:07 51°13.812 2°55.643 -999 2.529819 26.213294 14.050888
2006-03-21 08:13:12 51°13.821 2°55.637 -999 2.529819 26.213294 14.050888
2006-03-21 08:13:17 51°13.831 2°55.63 -999 2.536122 26.286577 14.48911
2006-03-21 08:13:22 51°13.841 2°55.623 -999 2.539119 26.319908 14.994751
2006-03-21 08:13:28 51°13.853 2°55.614 -999 2.538395 26.314789 15.770067
2006-03-21 08:13:32 51°13.861 2°55.608 -999 2.538499 26.317523 16.545383
2006-03-21 08:13:37 51°13.871 2°55.6 -999 2.539119 26.32614 17.28699
2006-03-21 08:13:42 51°13.881 2°55.593 -999 2.537569 26.308492 17.758922
2006-03-21 08:13:47 51°13.892 2°55.585 -999 2.537569 26.308492 17.758922
2006-03-21 08:13:52 51°13.903 2°55.577 -999 2.530543 26.23006 18.197144
2006-03-21 08:13:57 51°13.914 2°55.569 -999 2.522793 26.141098 18.466819
2006-03-21 08:14:02 51°13.925 2°55.561 -999 2.518143 26.088977 18.601657
2006-03-21 08:14:08 51°13.938 2°55.552 -999 2.517627 26.083872 18.669076
2006-03-21 08:14:12 51°13.947 2°55.546 -999 2.517627 26.083872 18.669076
2006-03-21 08:14:17 51°13.957 2°55.537 -999 2.51835 26.095961 18.736494
2006-03-21 08:14:22 51°13.968 2°55.529 -999 2.52424 26.164526 18.871332
2006-03-21 08:14:27 51°13.979 2°55.521 -999 2.534056 26.276273 18.905042
2006-03-21 08:14:32 51°13.99 2°55.512 -999 2.549142 26.444993 18.803913
2006-03-21 08:14:37 51°14.001 2°55.505 -999 2.563919 26.617367 18.669076
2006-03-21 08:14:42 51°14.013 2°55.498 -999 2.563919 26.617367 18.669076
2006-03-21 08:14:47 51°14.024 2°55.491 -999 2.580349 26.813563 18.567947
2006-03-21 08:14:52 51°14.035 2°55.484 -999 2.589443 26.921408 18.534238
2006-03-21 08:14:57 51°14.045 2°55.477 -999 2.599984 27.045074 18.365691
2006-03-21 08:15:02 51°14.055 2°55.47 -999 2.606598 27.123112 17.961178
2006-03-21 08:15:07 51°14.065 2°55.463 -999 2.609698 27.156161 17.522956
2006-03-21 08:15:13 51°14.076 2°55.455 -999 2.611765 27.18222 17.253281
2006-03-21 08:15:17 51°14.084 2°55.45 -999 2.611765 27.18222 17.253281
2006-03-21 08:15:22 51°14.095 2°55.442 -999 2.609802 27.163781 17.253281
2006-03-21 08:15:27 51°14.105 2°55.434 -999 2.608148 27.148887 17.354409
2006-03-21 08:15:32 51°14.116 2°55.426 -999 2.611249 27.188392 17.388118
2006-03-21 08:15:37 51°14.126 2°55.418 -999 2.616726 27.25513 17.185862
2006-03-21 08:15:42 51°14.137 2°55.409 -999 2.616726 27.25513 17.185862
2006-03-21 08:15:47 51°14.148 2°55.4 -999 2.620136 27.294183 16.781349
2006-03-21 08:15:52 51°14.159 2°55.391 -999 2.61962 27.289883 16.376836
2006-03-21 08:15:57 51°14.169 2°55.38 -999 2.62086 27.308135 16.039742
2006-03-21 08:16:02 51°14.18 2°55.37 -999 2.62427 27.349639 15.702648
2006-03-21 08:16:07 51°14.19 2°55.359 -999 2.627784 27.392341 15.399264
2006-03-21 08:16:12 51°14.201 2°55.348 -999 2.627784 27.392341 15.399264
2006-03-21 08:16:17 51°14.211 2°55.336 -999 2.626648 27.381748 15.129589
2006-03-21 08:16:23 51°14.223 2°55.32 -999 2.620653 27.316299 14.893623
2006-03-21 08:16:27 51°14.231 2°55.31 -999 2.612696 27.229168 14.691366
2006-03-21 08:16:32 51°14.24 2°55.296 -999 2.607115 27.166856 14.623947
2006-03-21 08:16:37 51°14.25 2°55.281 -999 2.602671 27.114355 14.421691
2006-03-21 08:16:42 51°14.258 2°55.266 -999 2.602671 27.114355 14.421691
2006-03-21 08:16:47 51°14.267 2°55.251 -999 2.595231 27.029975 14.253144
2006-03-21 08:16:52 51°14.275 2°55.235 -999 2.59089 26.9819 14.185725
2006-03-21 08:16:57 51°14.283 2°55.22 -999 2.59151 26.990598 14.084597
2006-03-21 08:17:02 51°14.29 2°55.205 -999 2.593887 27.018606 14.050888
2006-03-21 08:17:07 51°14.297 2°55.19 -999 2.596368 27.046197 14.017178
2006-03-21 08:17:12 51°14.304 2°55.175 -999 2.598434 27.068254 13.983469
2006-03-21 08:17:17 51°14.311 2°55.161 -999 2.598434 27.068254 13.983469
2006-03-21 08:17:22 51°14.317 2°55.146 -999 2.599571 27.080465 13.949759
2006-03-21 08:17:27 51°14.324 2°55.132 -999 2.599674 27.081648 13.91605
2006-03-21 08:17:32 51°14.33 2°55.119 -999 2.599261 27.077719 13.91605
2006-03-21 08:17:37 51°14.337 2°55.106 -999 2.599054 27.075353 13.882341
2006-03-21 08:17:42 51°14.343 2°55.093 -999 2.599054 27.075353 13.882341
2006-03-21 08:17:47 51°14.35 2°55.081 -999 2.599674 27.083256 13.882341
2006-03-21 08:17:52 51°14.357 2°55.068 -999 2.600088 27.084774 13.882341
2006-03-21 08:17:57 51°14.364 2°55.056 -999 2.600088 27.082363 13.848631
2006-03-21 08:18:02 51°14.37 2°55.044 -999 2.601948 27.103659 13.848631
2006-03-21 08:18:07 51°14.377 2°55.032 -999 2.607942 27.169876 13.848631
2006-03-21 08:18:11 51°14.383 2°55.021 -999 2.607942 27.169876 13.848631
2006-03-21 08:18:17 51°14.392 2°55.005 -999 2.616003 27.258161 13.882341
2006-03-21 08:18:22 51°14.4 2°54.991 -999 2.624581 27.35238 13.91605
2006-03-21 08:18:27 51°14.408 2°54.976 -999 2.633262 27.45187 13.983469
2006-03-21 08:18:32 51°14.417 2°54.961 -999 2.642253 27.557414 14.084597
2006-03-21 08:18:37 51°14.426 2°54.946 -999 2.650418 27.654357 14.152016
2006-03-21 08:18:41 51°14.434 2°54.935 -999 2.650418 27.654357 14.152016
2006-03-21 08:18:47 51°14.446 2°54.918 -999 2.65724 27.735939 14.219435
2006-03-21 08:18:52 51°14.456 2°54.904 -999 2.664061 27.815917 14.253144
2006-03-21 08:18:57 51°14.467 2°54.889 -999 2.669229 27.87197 14.286853
2006-03-21 08:19:02 51°14.478 2°54.875 -999 2.674604 27.939518 14.387982
2006-03-21 08:19:07 51°14.49 2°54.86 -999 2.680599 28.017569 14.556529
2006-03-21 08:19:12 51°14.502 2°54.846 -999 2.686904 28.104268 14.725076
2006-03-21 08:19:17 51°14.514 2°54.831 -999 2.686904 28.104268 14.725076
2006-03-21 08:19:21 51°14.524 2°54.82 -999 2.696827 28.242827 14.927332
2006-03-21 08:19:27 51°14.539 2°54.802 -999 2.712332 28.444419 15.197007
2006-03-21 08:19:32 51°14.551 2°54.786 -999 2.731559 28.692076 15.365554
2006-03-21 08:19:37 51°14.565 2°54.771 -999 2.747169 28.89504 15.432973
2006-03-21 08:19:41 51°14.575 2°54.759 -999 2.747169 28.89504 15.432973
2006-03-21 08:19:47 51°14.591 2°54.741 -999 2.761125 29.075812 15.399264
2006-03-21 08:19:51 51°14.602 2°54.728 -999 2.771876 29.208388 15.331845
2006-03-21 08:19:57 51°14.618 2°54.709 -999 2.781284 29.324617 15.197007
2006-03-21 08:20:02 51°14.632 2°54.693 -999 2.786763 29.388273 15.095879
2006-03-21 08:20:07 51°14.645 2°54.678 -999 2.79431 29.47598 14.961042
2006-03-21 08:20:12 51°14.66 2°54.662 -999 2.79431 29.47598 14.961042
2006-03-21 08:20:17 51°14.673 2°54.647 -999 2.801134 29.559719 14.826204
2006-03-21 08:20:22 51°14.687 2°54.631 -999 2.805579 29.614077 14.725076
2006-03-21 08:20:27 51°14.701 2°54.615 -999 2.808681 29.651046 14.590238
2006-03-21 08:20:32 51°14.715 2°54.599 -999 2.811473 29.6853 14.522819
2006-03-21 08:20:37 51°14.729 2°54.583 -999 2.813851 29.717412 14.421691
2006-03-21 08:20:41 51°14.74 2°54.57 -999 2.815505 29.740222 14.354272
2006-03-21 08:20:47 51°14.757 2°54.552 -999 2.815505 29.740222 14.354272
2006-03-21 08:20:52 51°14.772 2°54.535 -999 2.817573 29.766966 14.320563
2006-03-21 08:20:57 51°14.786 2°54.52 -999 2.819537 29.795184 14.286853
2006-03-21 08:21:01 51°14.797 2°54.506 -999 2.820571 29.811681 14.320563
2006-03-21 08:21:07 51°14.813 2°54.487 -999 2.822019 29.832112 14.320563
2006-03-21 08:21:12 51°14.827 2°54.471 -999 2.822019 29.832112 14.320563
2006-03-21 08:21:17 51°14.841 2°54.454 -999 2.822742 29.845006 14.354272
2006-03-21 08:21:21 51°14.853 2°54.441 -999 2.823466 29.853442 14.4554
2006-03-21 08:21:27 51°14.87 2°54.422 -999 2.823776 29.862413 14.522819
2006-03-21 08:21:32 51°14.884 2°54.406 -999 2.824086 29.866029 14.48911
2006-03-21 08:21:37 51°14.898 2°54.39 -999 2.82481 29.877147 14.4554
2006-03-21 08:21:41 51°14.909 2°54.378 -999 2.82481 29.877147 14.4554
2006-03-21 08:21:47 51°14.926 2°54.359 -999 2.825017 29.883132 14.354272
2006-03-21 08:21:52 51°14.941 2°54.343 -999 2.82512 29.887019 14.286853
2006-03-21 08:21:57 51°14.955 2°54.328 -999 2.825431 29.895108 14.219435
2006-03-21 08:22:01 51°14.966 2°54.316 -999 2.825948 29.902927 14.185725
2006-03-21 08:22:07 51°14.983 2°54.297 -999 2.825948 29.902927 14.152016
2006-03-21 08:22:11 51°14.995 2°54.285 -999 2.825948 29.902927 14.152016
2006-03-21 08:22:17 51°15.011 2°54.267 -999 2.826568 29.911058 14.118306
2006-03-21 08:22:21 51°15.023 2°54.254 -999 2.827395 29.922498 14.084597
2006-03-21 08:22:27 51°15.04 2°54.235 -999 2.828119 29.931837 14.084597
2006-03-21 08:22:32 51°15.053 2°54.22 -999 2.828843 29.93849 14.118306
2006-03-21 08:22:37 51°15.067 2°54.203 -999 2.829153 29.943005 14.253144
2006-03-21 08:22:42 51°15.082 2°54.187 -999 2.82967 29.949933 14.48911
2006-03-21 08:22:47 51°15.095 2°54.171 -999 2.82967 29.949933 14.48911
2006-03-21 08:22:51 51°15.106 2°54.158 -999 2.830187 29.956862 14.758785
2006-03-21 08:22:57 51°15.123 2°54.137 -999 2.831014 29.970101 14.994751
2006-03-21 08:23:02 51°15.138 2°54.122 -999 2.831531 29.977929 15.230717
2006-03-21 08:23:07 51°15.152 2°54.106 -999 2.832151 29.986965 15.399264
2006-03-21 08:23:12 51°15.167 2°54.091 -999 2.832151 29.986965 15.399264
2006-03-21 08:23:17 51°15.181 2°54.077 -999 2.832772 29.9969 15.534101
2006-03-21 08:23:21 51°15.193 2°54.065 -999 2.833082 30.002317 15.534101
2006-03-21 08:23:27 51°15.211 2°54.049 -999 2.833185 30.005321 15.399264
2006-03-21 08:23:32 51°15.226 2°54.035 -999 2.833496 30.009841 15.230717
2006-03-21 08:23:37 51°15.24 2°54.021 -999 2.833289 30.007427 14.994751
2006-03-21 08:23:42 51°15.255 2°54.007 -999 2.833289 30.007427 14.994751
2006-03-21 08:23:46 51°15.267 2°53.995 -999 2.833496 30.01074 14.826204
2006-03-21 08:23:52 51°15.285 2°53.978 -999 2.833496 30.01074 14.657657
2006-03-21 08:23:57 51°15.3 2°53.963 -999 2.833599 30.01015 14.556529
2006-03-21 08:24:01 51°15.312 2°53.951 -999 2.833599 30.01015 14.4554
2006-03-21 08:24:07 51°15.33 2°53.934 -999 2.833702 30.011357 14.421691
2006-03-21 08:24:12 51°15.344 2°53.921 -999 2.833806 30.013463 14.387982
2006-03-21 08:24:17 51°15.359 2°53.905 -999 2.833806 30.013463 14.387982
2006-03-21 08:24:22 51°15.373 2°53.891 -999 2.833806 30.012565 14.354272
2006-03-21 08:24:27 51°15.388 2°53.876 -999 2.833702 30.011357 14.354272
2006-03-21 08:24:32 51°15.402 2°53.862 -999 2.833806 30.011666 14.320563
2006-03-21 08:24:37 51°15.416 2°53.847 -999 2.833909 30.010178 14.286853
2006-03-21 08:24:42 51°15.431 2°53.832 -999 2.833909 30.010178 14.286853
2006-03-21 08:24:47 51°15.445 2°53.818 -999 2.834012 30.008691 14.286853
2006-03-21 08:24:52 51°15.46 2°53.803 -999 2.834426 30.013519 14.253144
2006-03-21 08:24:57 51°15.474 2°53.788 -999 2.834426 30.016214 14.219435
2006-03-21 08:25:02 51°15.489 2°53.774 -999 2.834426 30.015316 14.219435
2006-03-21 08:25:07 51°15.503 2°53.758 -999 2.834633 30.020426 14.185725
2006-03-21 08:25:11 51°15.515 2°53.747 -999 2.834633 30.020426 14.185725
2006-03-21 08:25:17 51°15.532 2°53.728 -999 2.834633 30.020426 14.185725
2006-03-21 08:25:21 51°15.544 2°53.717 -999 2.834736 30.021633 14.185725
2006-03-21 08:25:27 51°15.562 2°53.699 -999 2.83484 30.02284 14.152016
2006-03-21 08:25:32 51°15.576 2°53.685 -999 2.834943 30.028542 14.152016
2006-03-21 08:25:37 51°15.591 2°53.671 -999 2.835047 30.030649 14.152016
2006-03-21 08:25:41 51°15.603 2°53.659 -999 2.835047 30.030649 14.152016
2006-03-21 08:25:47 51°15.62 2°53.642 -999 2.835047 30.032447 14.118306
2006-03-21 08:25:52 51°15.636 2°53.626 -999 2.83515 30.033654 14.118306
2006-03-21 08:25:57 51°15.65 2°53.611 -999 2.835253 30.035761 14.084597
2006-03-21 08:26:01 51°15.662 2°53.599 -999 2.835253 30.03846 14.050888
2006-03-21 08:26:07 51°15.678 2°53.582 -999 2.835357 30.042366 14.017178
2006-03-21 08:26:12 51°15.693 2°53.566 -999 2.835357 30.045966 13.983469
2006-03-21 08:26:17 51°15.707 2°53.552 -999 2.835357 30.045966 13.983469
2006-03-21 08:26:21 51°15.718 2°53.54 -999 2.835253 30.045658 13.983469
2006-03-21 08:26:27 51°15.736 2°53.522 -999 2.834426 30.035094 13.949759
2006-03-21 08:26:32 51°15.75 2°53.506 -999 2.834219 30.033578 13.949759
2006-03-21 08:26:37 51°15.765 2°53.492 -999 2.835564 30.051982 13.91605
2006-03-21 08:26:42 51°15.78 2°53.476 -999 2.835564 30.051982 13.91605
2006-03-21 08:26:47 51°15.794 2°53.461 -999 2.834943 30.045634 13.949759
2006-03-21 08:26:52 51°15.808 2°53.447 -999 2.834633 30.042909 13.949759
2006-03-21 08:26:57 51°15.824 2°53.432 -999 2.83484 30.046226 13.949759
2006-03-21 08:27:01 51°15.835 2°53.42 -999 2.834633 30.04651 13.983469
2006-03-21 08:27:07 51°15.853 2°53.4 -999 2.83453 30.042601 13.983469
2006-03-21 08:27:12 51°15.866 2°53.387 -999 2.83453 30.042601 13.983469
2006-03-21 08:27:17 51°15.881 2°53.371 -999 2.834323 30.041985 14.017178
2006-03-21 08:27:22 51°15.895 2°53.357 -999 2.83453 30.045301 14.050888
2006-03-21 08:27:27 51°15.91 2°53.34 -999 2.834633 30.04561 14.050888
2006-03-21 08:27:32 51°15.924 2°53.326 -999 2.834633 30.04651 14.084597
2006-03-21 08:27:37 51°15.939 2°53.312 -999 2.835253 30.051959 14.084597
2006-03-21 08:27:42 51°15.953 2°53.298 -999 2.836598 30.066766 14.084597
2006-03-21 08:27:47 51°15.968 2°53.283 -999 2.836598 30.066766 14.084597
2006-03-21 08:27:52 51°15.982 2°53.269 -999 2.837838 30.081267 14.084597
2006-03-21 08:27:56 51°15.994 2°53.258 -999 2.839079 30.094867 14.084597
2006-03-21 08:28:02 51°16.013 2°53.241 -999 2.84001 30.105743 14.050888
2006-03-21 08:28:07 51°16.027 2°53.227 -999 2.841871 30.129303 14.050888
2006-03-21 08:28:12 51°16.043 2°53.213 -999 2.842595 30.140473 13.983469
2006-03-21 08:28:17 51°16.058 2°53.199 -999 2.842595 30.140473 13.983469
2006-03-21 08:28:21 51°16.069 2°53.189 -999 2.843629 30.151658 13.983469
2006-03-21 08:28:27 51°16.087 2°53.171 -999 2.844663 30.167363 13.949759
2006-03-21 08:28:32 51°16.102 2°53.157 -999 2.8458 30.183377 13.91605
2006-03-21 08:28:37 51°16.117 2°53.142 -999 2.846214 30.189119 13.91605
2006-03-21 08:28:42 51°16.132 2°53.129 -999 2.846214 30.189119 13.91605
2006-03-21 08:28:46 51°16.143 2°53.118 -999 2.847558 30.207557 13.882341
2006-03-21 08:28:51 51°16.158 2°53.104 -999 2.848385 30.219045 13.882341
2006-03-21 08:28:57 51°16.175 2°53.09 -999 2.849005 30.226303 13.882341
2006-03-21 08:29:02 51°16.191 2°53.076 -999 2.849832 30.235075 13.882341
2006-03-21 08:29:07 51°16.205 2°53.064 -999 2.850246 30.24082 13.91605
2006-03-21 08:29:12 51°16.221 2°53.052 -999 2.850246 30.24082 13.91605
2006-03-21 08:29:17 51°16.236 2°53.041 -999 2.85097 30.252916 13.91605
2006-03-21 08:29:21 51°16.248 2°53.031 -999 2.851694 30.2632 13.949759
2006-03-21 08:29:27 51°16.266 2°53.017 -999 2.851797 30.266225 13.949759
2006-03-21 08:29:32 51°16.282 2°53.005 -999 2.852211 30.270158 13.91605
2006-03-21 08:29:37 51°16.298 2°52.993 -999 2.852521 30.272881 13.91605
2006-03-21 08:29:42 51°16.313 2°52.982 -999 2.852728 30.278025 13.91605
2006-03-21 08:29:47 51°16.329 2°52.97 -999 2.852728 30.278025 13.91605
2006-03-21 08:29:51 51°16.341 2°52.96 -999 2.852624 30.277723 13.91605
2006-03-21 08:29:57 51°16.359 2°52.945 -999 2.852624 30.280446 13.91605
2006-03-21 08:30:01 51°16.371 2°52.935 -999 2.853658 30.292551 13.949759
2006-03-21 08:30:07 51°16.39 2°52.921 -999 2.852935 30.284078 13.949759
2006-03-21 08:30:12 51°16.404 2°52.908 -999 2.852935 30.284078 13.949759
2006-03-21 08:30:17 51°16.42 2°52.896 -999 2.853141 30.287407 13.949759
2006-03-21 08:30:22 51°16.435 2°52.884 -999 2.853452 30.292855 13.949759
2006-03-21 08:30:27 51°16.451 2°52.871 -999 2.853555 30.294066 13.949759
2006-03-21 08:30:32 51°16.466 2°52.859 -999 2.853969 30.298908 13.949759
2006-03-21 08:30:37 51°16.482 2°52.847 -999 2.853348 30.290736 13.949759
2006-03-21 08:30:42 51°16.497 2°52.836 -999 2.853348 30.290736 13.949759
2006-03-21 08:30:47 51°16.514 2°52.824 -999 2.853865 30.297697 13.949759
2006-03-21 08:30:52 51°16.53 2°52.812 -999 2.853245 30.292251 13.949759
2006-03-21 08:30:57 51°16.545 2°52.8 -999 2.853555 30.296792 13.949759
2006-03-21 08:31:01 51°16.557 2°52.79 -999 2.854072 30.304663 13.949759
2006-03-21 08:31:07 51°16.576 2°52.776 -999 2.853969 30.304361 13.949759
2006-03-21 08:31:11 51°16.588 2°52.767 -999 2.853969 30.304361 13.949759
2006-03-21 08:31:17 51°16.606 2°52.756 -999 2.854796 30.314957 13.949759
2006-03-21 08:31:22 51°16.622 2°52.746 -999 2.854899 30.318897 13.949759
2006-03-21 08:31:27 51°16.638 2°52.736 -999 2.855106 30.322229 13.949759
2006-03-21 08:31:32 51°16.655 2°52.725 -999 2.85552 30.328893 13.983469
2006-03-21 08:31:37 51°16.67 2°52.716 -999 2.85676 30.344338 13.983469
2006-03-21 08:31:42 51°16.686 2°52.707 -999 2.857381 30.351605 13.983469
2006-03-21 08:31:47 51°16.701 2°52.697 -999 2.857381 30.351605 13.983469
2006-03-21 08:31:51 51°16.714 2°52.689 -999 2.858001 30.357963 13.983469
2006-03-21 08:31:57 51°16.733 2°52.678 -999 2.858622 30.36432 14.017178
2006-03-21 08:32:02 51°16.75 2°52.669 -999 2.859552 30.373399 13.983469
2006-03-21 08:32:07 51°16.766 2°52.66 -999 2.859966 30.374599 14.017178
2006-03-21 08:32:12 51°16.782 2°52.651 -999 2.859966 30.374599 14.017178
2006-03-21 08:32:17 51°16.799 2°52.642 -999 2.859552 30.367022 13.983469
2006-03-21 08:32:22 51°16.815 2°52.633 -999 2.861 30.383066 13.983469
2006-03-21 08:32:27 51°16.831 2°52.625 -999 2.861413 30.386087 13.983469
2006-03-21 08:32:32 51°16.848 2°52.615 -999 2.861517 30.385476 13.983469
2006-03-21 08:32:37 51°16.864 2°52.606 -999 2.862137 30.390919 13.983469
2006-03-21 08:32:41 51°16.877 2°52.599 -999 2.862137 30.390919 13.983469
2006-03-21 08:32:47 51°16.896 2°52.588 -999 2.862034 30.39062 13.983469
2006-03-21 08:32:52 51°16.913 2°52.579 -999 2.863378 30.405451 14.050888
2006-03-21 08:32:57 51°16.93 2°52.572 -999 2.863378 30.406363 14.118306
2006-03-21 08:33:01 51°16.944 2°52.566 -999 2.864102 30.414841 14.185725
2006-03-21 08:33:07 51°16.964 2°52.557 -999 2.863998 30.411805 14.320563
2006-03-21 08:33:12 51°16.98 2°52.551 -999 2.864929 30.423617 14.421691
2006-03-21 08:33:17 51°16.997 2°52.543 -999 2.864929 30.423617 14.421691
2006-03-21 08:33:21 51°17.01 2°52.538 -999 2.866066 30.435115 14.657657
2006-03-21 08:33:27 51°17.028 2°52.53 -999 2.86741 30.452686 14.826204
2006-03-21 08:33:32 51°17.045 2°52.524 -999 2.868134 30.460252 15.02846
2006-03-21 08:33:37 51°17.061 2°52.518 -999 2.867721 30.45632 15.197007
2006-03-21 08:33:42 51°17.077 2°52.511 -999 2.867721 30.45632 15.197007
2006-03-21 08:33:47 51°17.094 2°52.505 -999 2.868341 30.463588 15.331845
2006-03-21 08:33:51 51°17.107 2°52.499 -999 2.869065 30.472068 15.432973
2006-03-21 08:33:57 51°17.127 2°52.491 -999 2.869375 30.476616 15.399264
2006-03-21 08:34:02 51°17.143 2°52.485 -999 2.869892 30.482673 15.331845
2006-03-21 08:34:07 51°17.16 2°52.477 -999 2.869685 30.481165 15.230717
2006-03-21 08:34:12 51°17.177 2°52.471 -999 2.869685 30.481165 15.230717
2006-03-21 08:34:17 51°17.193 2°52.464 -999 2.868858 30.471473 15.06217
2006-03-21 08:34:22 51°17.209 2°52.458 -999 2.869789 30.48329 14.927332
2006-03-21 08:34:27 51°17.226 2°52.451 -999 2.869789 30.482376 14.758785
2006-03-21 08:34:32 51°17.242 2°52.445 -999 2.869375 30.476616 14.623947
2006-03-21 08:34:37 51°17.258 2°52.44 -999 2.869479 30.477827 14.522819
2006-03-21 08:34:42 51°17.276 2°52.434 -999 2.869479 30.477827 14.522819
2006-03-21 08:34:47 51°17.292 2°52.428 -999 2.870409 30.488731 14.421691
2006-03-21 08:34:52 51°17.308 2°52.424 -999 2.870513 30.489028 14.320563
2006-03-21 08:34:57 51°17.324 2°52.419 -999 2.870616 30.489325 14.253144
2006-03-21 08:35:01 51°17.338 2°52.416 -999 2.869272 30.471749 14.219435
2006-03-21 08:35:07 51°17.358 2°52.412 -999 2.870719 30.48688 14.152016
2006-03-21 08:35:12 51°17.374 2°52.41 -999 2.871029 30.490514 14.084597
2006-03-21 08:35:17 51°17.392 2°52.408 -999 2.871029 30.490514 14.084597
2006-03-21 08:35:21 51°17.405 2°52.406 -999 2.871133 30.494468 14.084597
2006-03-21 08:35:27 51°17.425 2°52.404 -999 2.87165 30.499611 14.050888
2006-03-21 08:35:32 51°17.441 2°52.402 -999 2.87196 30.50416 14.050888
2006-03-21 08:35:37 51°17.459 2°52.401 -999 2.871236 30.497509 14.017178
2006-03-21 08:35:41 51°17.472 2°52.399 -999 2.871236 30.497509 14.017178
2006-03-21 08:35:47 51°17.492 2°52.398 -999 2.872477 30.514793 13.983469
2006-03-21 08:35:52 51°17.509 2°52.396 -999 2.872684 30.519047 13.983469
2006-03-21 08:35:57 51°17.526 2°52.395 -999 2.872581 30.51875 13.983469
2006-03-21 08:36:01 51°17.54 2°52.393 -999 2.872787 30.521174 13.983469
2006-03-21 08:36:07 51°17.558 2°52.391 -999 2.873201 30.526937 13.949759
2006-03-21 08:36:12 51°17.576 2°52.39 -999 2.873201 30.526937 13.949759
2006-03-21 08:36:16 51°17.589 2°52.388 -999 2.873925 30.537253 13.91605
2006-03-21 08:36:22 51°17.609 2°52.386 -999 2.873304 30.530896 13.91605
2006-03-21 08:36:27 51°17.626 2°52.386 -999 2.874649 30.548486 13.91605
2006-03-21 08:36:32 51°17.643 2°52.385 -999 2.874028 30.541213 13.882341
2006-03-21 08:36:37 51°17.658 2°52.385 -999 2.874649 30.550319 13.882341
2006-03-21 08:36:42 51°17.676 2°52.386 -999 2.874545 30.549107 13.848631
2006-03-21 08:36:47 51°17.691 2°52.387 -999 2.874545 30.549107 13.848631
2006-03-21 08:36:52 51°17.708 2°52.388 -999 2.874959 30.553956 13.848631
2006-03-21 08:36:57 51°17.725 2°52.39 -999 2.875373 30.560639 13.848631
2006-03-21 08:37:02 51°17.742 2°52.391 -999 2.875683 30.563359 13.848631
2006-03-21 08:37:06 51°17.754 2°52.392 -999 2.875993 30.565162 13.848631
2006-03-21 08:37:12 51°17.774 2°52.393 -999 2.876407 30.572763 13.848631
2006-03-21 08:37:17 51°17.792 2°52.394 -999 2.876407 30.572763 13.848631
2006-03-21 08:37:22 51°17.808 2°52.395 -999 2.877027 30.581873 13.848631
2006-03-21 08:37:27 51°17.824 2°52.397 -999 2.877958 30.594622 13.814922
2006-03-21 08:37:32 51°17.841 2°52.399 -999 2.878165 30.598884 13.814922
2006-03-21 08:37:37 51°17.858 2°52.401 -999 2.878785 30.606161 13.814922
2006-03-21 08:37:41 51°17.871 2°52.404 -999 2.878785 30.606161 13.814922
2006-03-21 08:37:47 51°17.89 2°52.407 -999 2.879199 30.613768 13.814922
2006-03-21 08:37:52 51°17.907 2°52.41 -999 2.879612 30.621377 13.848631
2006-03-21 08:37:57 51°17.923 2°52.414 -999 2.88106 30.638361 13.814922
2006-03-21 08:38:02 51°17.938 2°52.417 -999 2.880336 30.628949 13.848631
2006-03-21 08:38:07 51°17.955 2°52.42 -999 2.881991 30.64836 13.848631
2006-03-21 08:38:12 51°17.971 2°52.423 -999 2.881991 30.64836 13.848631
2006-03-21 08:38:17 51°17.988 2°52.426 -999 2.882197 30.649866 13.848631
2006-03-21 08:38:21 51°18.001 2°52.428 -999 2.882611 30.655639 13.882341
2006-03-21 08:38:27 51°18.019 2°52.431 -999 2.883128 30.661705 13.882341
2006-03-21 08:38:32 51°18.036 2°52.434 -999 2.884162 30.673838 13.91605
2006-03-21 08:38:37 51°18.052 2°52.437 -999 2.884472 30.67932 13.949759
2006-03-21 08:38:41 51°18.066 2°52.439 -999 2.885403 30.690241 13.983469
2006-03-21 08:38:47 51°18.084 2°52.442 -999 2.885403 30.690241 13.983469
2006-03-21 08:38:52 51°18.1 2°52.446 -999 2.886127 30.698735 13.983469
2006-03-21 08:38:57 51°18.117 2°52.451 -999 2.886954 30.707522 13.983469
2006-03-21 08:39:02 51°18.132 2°52.455 -999 2.887264 30.711163 13.983469
2006-03-21 08:39:07 51°18.148 2°52.46 -999 2.888505 30.723881 13.983469
2006-03-21 08:39:12 51°18.164 2°52.464 -999 2.888505 30.723881 13.983469
2006-03-21 08:39:17 51°18.18 2°52.47 -999 2.888091 30.717183 13.983469
2006-03-21 08:39:21 51°18.193 2°52.474 -999 2.890263 30.741745 13.949759
2006-03-21 08:39:27 51°18.212 2°52.479 -999 2.889539 30.728639 13.91605
2006-03-21 08:39:32 51°18.228 2°52.485 -999 2.89047 30.737714 13.882341
2006-03-21 08:39:36 51°18.24 2°52.488 -999 2.890676 30.738296 13.848631
2006-03-21 08:39:42 51°18.259 2°52.495 -999 2.890676 30.738296 13.848631
2006-03-21 08:39:47 51°18.276 2°52.5 -999 2.890883 30.737956 13.848631
2006-03-21 08:39:52 51°18.291 2°52.504 -999 2.890676 30.731842 13.814922
2006-03-21 08:39:57 51°18.306 2°52.509 -999 2.890987 30.731794 13.781212
2006-03-21 08:40:01 51°18.319 2°52.514 -999 2.8914 30.73388 13.747503
2006-03-21 08:40:07 51°18.339 2°52.52 -999 2.891607 30.735384 13.713794
2006-03-21 08:40:12 51°18.353 2°52.525 -999 2.891814 30.737809 13.680084
2006-03-21 08:40:17 51°18.369 2°52.532 -999 2.891814 30.737809 13.680084
2006-03-21 08:40:21 51°18.381 2°52.536 -999 2.8914 30.732958 13.680084
2006-03-21 08:40:27 51°18.4 2°52.544 -999 2.891917 30.7381 13.680084
2006-03-21 08:40:32 51°18.415 2°52.551 -999 2.891917 30.7381 13.646375
2006-03-21 08:40:37 51°18.431 2°52.558 -999 2.891917 30.7381 13.646375
2006-03-21 08:40:42 51°18.447 2°52.565 -999 2.891814 30.736887 13.612665
2006-03-21 08:40:47 51°18.462 2°52.572 -999 2.891814 30.736887 13.612665
2006-03-21 08:40:52 51°18.478 2°52.579 -999 2.892227 30.741738 13.612665
2006-03-21 08:40:57 51°18.493 2°52.585 -999 2.891917 30.7381 13.612665
2006-03-21 08:41:02 51°18.509 2°52.593 -999 2.892744 30.74688 13.578956
2006-03-21 08:41:07 51°18.525 2°52.599 -999 2.891607 30.732619 13.578956
2006-03-21 08:41:12 51°18.54 2°52.605 -999 2.891607 30.732619 13.578956
2006-03-21 08:41:17 51°18.555 2°52.613 -999 2.892227 30.740817 13.545247
2006-03-21 08:41:22 51°18.571 2°52.62 -999 2.891607 30.736305 13.545247
2006-03-21 08:41:27 51°18.587 2°52.626 -999 2.891504 30.735093 13.545247
2006-03-21 08:41:32 51°18.603 2°52.633 -999 2.892124 30.742369 13.511537
2006-03-21 08:41:37 51°18.619 2°52.639 -999 2.892021 30.741157 13.511537
2006-03-21 08:41:41 51°18.631 2°52.645 -999 2.892021 30.741157 13.511537
2006-03-21 08:41:47 51°18.65 2°52.654 -999 2.891814 30.741497 13.477828
2006-03-21 08:41:52 51°18.666 2°52.661 -999 2.892848 30.754549 13.477828
2006-03-21 08:41:57 51°18.681 2°52.668 -999 2.893055 30.756975 13.477828
2006-03-21 08:42:01 51°18.694 2°52.673 -999 2.893468 30.760904 13.477828
2006-03-21 08:42:07 51°18.712 2°52.682 -999 2.893985 30.766047 13.477828
2006-03-21 08:42:12 51°18.729 2°52.689 -999 2.894192 30.76755 13.477828
2006-03-21 08:42:17 51°18.744 2°52.697 -999 2.894192 30.76755 13.477828
2006-03-21 08:42:22 51°18.759 2°52.703 -999 2.894916 30.774195 13.477828
2006-03-21 08:42:27 51°18.775 2°52.71 -999 2.895433 30.781184 13.477828
2006-03-21 08:42:32 51°18.79 2°52.717 -999 2.896157 30.790598 13.477828
2006-03-21 08:42:37 51°18.806 2°52.724 -999 2.896054 30.790309 13.477828
2006-03-21 08:42:42 51°18.822 2°52.732 -999 2.896054 30.790309 13.477828
2006-03-21 08:42:47 51°18.837 2°52.741 -999 2.896467 30.793314 13.477828
2006-03-21 08:42:52 51°18.853 2°52.749 -999 2.89595 30.788172 13.444118
2006-03-21 08:42:57 51°18.868 2°52.757 -999 2.896364 30.792101 13.444118
2006-03-21 08:43:02 51°18.883 2°52.766 -999 2.895226 30.776911 13.477828
2006-03-21 08:43:07 51°18.898 2°52.774 -999 2.895433 30.779337 13.477828
2006-03-21 08:43:11 51°18.911 2°52.782 -999 2.895433 30.779337 13.477828
2006-03-21 08:43:17 51°18.929 2°52.793 -999 2.89564 30.781763 13.477828
2006-03-21 08:43:22 51°18.945 2°52.801 -999 2.895433 30.778414 13.477828
2006-03-21 08:43:27 51°18.959 2°52.809 -999 2.89564 30.778994 13.477828
2006-03-21 08:43:32 51°18.974 2°52.818 -999 2.894916 30.769582 13.444118
2006-03-21 08:43:37 51°18.99 2°52.827 -999 2.895536 30.775936 13.444118
2006-03-21 08:43:42 51°19.005 2°52.836 -999 2.894606 30.765943 13.444118
2006-03-21 08:43:47 51°19.02 2°52.844 -999 2.894606 30.765943 13.444118
2006-03-21 08:43:52 51°19.035 2°52.853 -999 2.894709 30.768079 13.444118
2006-03-21 08:43:57 51°19.05 2°52.864 -999 2.893261 30.7511 13.410409
2006-03-21 08:44:02 51°19.064 2°52.875 -999 2.893985 30.760512 13.410409
2006-03-21 08:44:07 51°19.078 2°52.888 -999 2.892848 30.747171 13.410409
2006-03-21 08:44:12 51°19.092 2°52.9 -999 2.892641 30.743824 13.410409
2006-03-21 08:44:17 51°19.105 2°52.914 -999 2.892641 30.743824 13.410409
2006-03-21 08:44:22 51°19.118 2°52.929 -999 2.892641 30.742902 13.3767
2006-03-21 08:44:26 51°19.128 2°52.94 -999 2.891504 30.728642 13.3767
2006-03-21 08:44:31 51°19.141 2°52.954 -999 2.891814 30.732279 13.410409
2006-03-21 08:44:37 51°19.156 2°52.973 -999 2.8914 30.727429 13.410409
2006-03-21 08:44:42 51°19.169 2°52.987 -999 2.8914 30.727429 13.410409
2006-03-21 08:44:47 51°19.182 2°53.004 -999 2.890469 30.716517 13.410409
2006-03-21 08:44:52 51°19.195 2°53.019 -999 2.890056 30.710746 13.410409
2006-03-21 08:44:57 51°19.208 2°53.034 -999 2.889746 30.708029 13.410409
2006-03-21 08:45:02 51°19.22 2°53.048 -999 2.888505 30.695321 13.410409
2006-03-21 08:45:07 51°19.233 2°53.062 -999 2.888505 30.695321 13.410409
2006-03-21 08:45:11 51°19.243 2°53.075 -999 2.888505 30.695321 13.410409
2006-03-21 08:45:17 51°19.259 2°53.093 -999 2.887988 30.687419 13.444118
2006-03-21 08:45:22 51°19.272 2°53.107 -999 2.887574 30.68257 13.444118
2006-03-21 08:45:27 51°19.285 2°53.122 -999 2.88685 30.675923 13.444118
2006-03-21 08:45:32 51°19.298 2°53.136 -999 2.88654 30.675046 13.444118
2006-03-21 08:45:37 51°19.311 2°53.151 -999 2.88654 30.676886 13.444118
2006-03-21 08:45:42 51°19.324 2°53.166 -999 2.885609 30.667813 13.444118
2006-03-21 08:45:47 51°19.337 2°53.18 -999 2.885609 30.667813 13.444118
2006-03-21 08:45:52 51°19.35 2°53.195 -999 2.886127 30.673876 13.410409
2006-03-21 08:45:57 51°19.362 2°53.211 -999 2.885196 30.662963 13.444118
2006-03-21 08:46:02 51°19.374 2°53.227 -999 2.884369 30.653263 13.410409
2006-03-21 08:46:07 51°19.387 2°53.244 -999 2.884265 30.654809 13.410409
2006-03-21 08:46:12 51°19.399 2°53.259 -999 2.884265 30.654809 13.410409
2006-03-21 08:46:17 51°19.411 2°53.274 -999 2.884369 30.656022 13.410409
2006-03-21 08:46:21 51°19.421 2°53.287 -999 2.884472 30.656315 13.410409
2006-03-21 08:46:27 51°19.436 2°53.305 -999 2.885196 30.663883 13.410409
2006-03-21 08:46:32 51°19.448 2°53.321 -999 2.883438 30.64419 13.410409
2006-03-21 08:46:37 51°19.46 2°53.336 -999 2.884369 30.656022 13.3767
2006-03-21 08:46:41 51°19.47 2°53.349 -999 2.884369 30.656022 13.3767
2006-03-21 08:46:47 51°19.485 2°53.369 -999 2.883748 30.648747 13.3767
2006-03-21 08:46:52 51°19.497 2°53.385 -999 2.883748 30.649666 13.3767
2006-03-21 08:46:57 51°19.51 2°53.399 -999 2.884472 30.659073 13.3767
2006-03-21 08:47:02 51°19.522 2°53.415 -999 2.883748 30.648747 13.3767
2006-03-21 08:47:07 51°19.535 2°53.431 -999 2.883645 30.646615 13.3767
2006-03-21 08:47:12 51°19.548 2°53.446 -999 2.883645 30.646615 13.3767
2006-03-21 08:47:17 51°19.559 2°53.46 -999 2.884162 30.651758 13.34299
2006-03-21 08:47:22 51°19.571 2°53.476 -999 2.884058 30.652384 13.3767
2006-03-21 08:47:27 51°19.584 2°53.492 -999 2.883852 30.652717 13.34299
2006-03-21 08:47:32 51°19.596 2°53.507 -999 2.883335 30.646654 13.34299
2006-03-21 08:47:37 51°19.609 2°53.524 -999 2.883335 30.647574 13.34299
2006-03-21 08:47:42 51°19.621 2°53.539 -999 2.884162 30.657275 13.34299
2006-03-21 08:47:47 51°19.633 2°53.554 -999 2.884162 30.657275 13.34299
2006-03-21 08:47:52 51°19.646 2°53.57 -999 2.883128 30.645149 13.3767
2006-03-21 08:47:57 51°19.658 2°53.585 -999 2.883128 30.645149 13.3767
2006-03-21 08:48:02 51°19.671 2°53.6 -999 2.883748 30.651505 13.3767
2006-03-21 08:48:07 51°19.683 2°53.616 -999 2.884369 30.658781 13.3767
2006-03-21 08:48:12 51°19.696 2°53.632 -999 2.884369 30.658781 13.3767
2006-03-21 08:48:17 51°19.708 2°53.647 -999 2.883438 30.645109 13.3767
2006-03-21 08:48:21 51°19.718 2°53.66 -999 2.884058 30.655143 13.3767
2006-03-21 08:48:27 51°19.733 2°53.679 -999 2.884782 30.664551 13.34299
2006-03-21 08:48:32 51°19.745 2°53.695 -999 2.884886 30.666684 13.34299
2006-03-21 08:48:37 51°19.758 2°53.712 -999 2.884679 30.664258 13.34299
2006-03-21 08:48:41 51°19.768 2°53.724 -999 2.884679 30.664258 13.34299
2006-03-21 08:48:47 51°19.784 2°53.743 -999 2.884369 30.66154 13.34299
2006-03-21 08:48:52 51°19.797 2°53.758 -999 2.884162 30.658195 13.34299
2006-03-21 08:48:57 51°19.809 2°53.773 -999 2.884265 30.659407 13.34299
2006-03-21 08:49:02 51°19.821 2°53.79 -999 2.884886 30.666684 13.34299
2006-03-21 08:49:06 51°19.831 2°53.802 -999 2.885299 30.672455 13.309281
2006-03-21 08:49:12 51°19.846 2°53.82 -999 2.884782 30.667311 13.309281
2006-03-21 08:49:17 51°19.859 2°53.837 -999 2.884782 30.667311 13.309281
2006-03-21 08:49:22 51°19.871 2°53.852 -999 2.88561 30.677014 13.309281
2006-03-21 08:49:27 51°19.884 2°53.868 -999 2.88561 30.677934 13.309281
2006-03-21 08:49:31 51°19.894 2°53.879 -999 2.884886 30.669444 13.309281
2006-03-21 08:49:37 51°19.909 2°53.898 -999 2.885403 30.675508 13.275571
2006-03-21 08:49:41 51°19.919 2°53.91 -999 2.886333 30.686424 13.275571
2006-03-21 08:49:47 51°19.935 2°53.928 -999 2.886333 30.686424 13.275571
2006-03-21 08:49:51 51°19.945 2°53.942 -999 2.885299 30.673375 13.275571
2006-03-21 08:49:57 51°19.96 2°53.96 -999 2.886023 30.681865 13.275571
2006-03-21 08:50:01 51°19.97 2°53.972 -999 2.88623 30.68337 13.241862
2006-03-21 08:50:07 51°19.985 2°53.991 -999 2.88685 30.690648 13.241862
2006-03-21 08:50:11 51°19.995 2°54.003 -999 2.88685 30.690648 13.241862
2006-03-21 08:50:17 51°20.011 2°54.022 -999 2.886023 30.682786 13.241862
2006-03-21 08:50:22 51°20.025 2°54.038 -999 2.886954 30.693702 13.241862
2006-03-21 08:50:27 51°20.036 2°54.053 -999 2.886954 30.692781 13.241862
2006-03-21 08:50:32 51°20.049 2°54.07 -999 2.887367 30.696712 13.208153
2006-03-21 08:50:37 51°20.062 2°54.085 -999 2.887367 30.697633 13.208153
2006-03-21 08:50:41 51°20.072 2°54.097 -999 2.887367 30.697633 13.208153
2006-03-21 08:50:47 51°20.088 2°54.116 -999 2.886747 30.691276 13.208153
2006-03-21 08:50:52 51°20.1 2°54.132 -999 2.887885 30.704619 13.174443
2006-03-21 08:50:57 51°20.113 2°54.148 -999 2.886644 30.689143 13.174443
2006-03-21 08:51:02 51°20.125 2°54.162 -999 2.88685 30.691569 13.174443
2006-03-21 08:51:07 51°20.137 2°54.176 -999 2.887678 30.700351 13.174443
2006-03-21 08:51:12 51°20.15 2°54.193 -999 2.888712 30.712481 13.140734
2006-03-21 08:51:17 51°20.162 2°54.208 -999 2.888712 30.712481 13.140734
2006-03-21 08:51:22 51°20.174 2°54.223 -999 2.888402 30.708842 13.140734
2006-03-21 08:51:27 51°20.188 2°54.239 -999 2.888608 30.710347 13.140734
2006-03-21 08:51:32 51°20.201 2°54.255 -999 2.888505 30.708213 13.107024
2006-03-21 08:51:37 51°20.214 2°54.27 -999 2.889746 30.721847 13.107024
2006-03-21 08:51:42 51°20.226 2°54.284 -999 2.890883 30.733346 13.107024
2006-03-21 08:51:47 51°20.239 2°54.3 -999 2.890883 30.733346 13.107024
2006-03-21 08:51:52 51°20.252 2°54.315 -999 2.891297 30.738198 13.107024
2006-03-21 08:51:57 51°20.265 2°54.331 -999 2.89047 30.728494 13.107024
2006-03-21 08:52:02 51°20.276 2°54.344 -999 2.890573 30.728785 13.107024
2006-03-21 08:52:07 51°20.289 2°54.36 -999 2.8914 30.737567 13.073315
2006-03-21 08:52:12 51°20.303 2°54.377 -999 2.8914 30.737567 13.073315
2006-03-21 08:52:17 51°20.315 2°54.391 -999 2.892745 30.754258 13.073315
2006-03-21 08:52:21 51°20.326 2°54.402 -999 2.892745 30.754258 13.073315
2006-03-21 08:52:27 51°20.342 2°54.418 -999 2.894192 30.769396 13.073315
2006-03-21 08:52:32 51°20.356 2°54.429 -999 2.894296 30.770609 13.039606
2006-03-21 08:52:37 51°20.37 2°54.438 -999 2.894709 30.774538 13.039606
2006-03-21 08:52:42 51°20.385 2°54.448 -999 2.89533 30.780894 13.005896
2006-03-21 08:52:47 51°20.401 2°54.456 -999 2.89533 30.780894 13.005896
2006-03-21 08:52:52 51°20.415 2°54.465 -999 2.897294 30.803019 13.039606
2006-03-21 08:52:57 51°20.432 2°54.473 -999 2.896984 30.79938 13.005896
2006-03-21 08:53:02 51°20.445 2°54.481 -999 2.896364 30.792101 13.005896
2006-03-21 08:53:07 51°20.462 2°54.491 -999 2.897605 30.808507 13.005896
2006-03-21 08:53:12 51°20.476 2°54.499 -999 2.898432 30.818213 13.005896
2006-03-21 08:53:17 51°20.493 2°54.508 -999 2.898432 30.818213 13.005896
2006-03-21 08:53:22 51°20.507 2°54.516 -999 2.898846 30.821218 13.005896
2006-03-21 08:53:27 51°20.522 2°54.524 -999 2.899259 30.824222 12.972187
2006-03-21 08:53:32 51°20.538 2°54.533 -999 2.899259 30.824222 13.005896
2006-03-21 08:53:37 51°20.555 2°54.543 -999 2.900293 30.834505 12.972187
2006-03-21 08:53:42 51°20.569 2°54.55 -999 2.900293 30.834505 12.972187
2006-03-21 08:53:47 51°20.584 2°54.557 -999 2.901534 30.848139 12.972187
2006-03-21 08:53:52 51°20.6 2°54.563 -999 2.902258 30.855706 12.972187
2006-03-21 08:53:57 51°20.616 2°54.567 -999 2.902361 30.85692 12.972187
2006-03-21 08:54:01 51°20.629 2°54.57 -999 2.903913 30.875119 12.972187
2006-03-21 08:54:07 51°20.649 2°54.573 -999 2.90443 30.879334 12.972187
2006-03-21 08:54:12 51°20.664 2°54.575 -999 2.90443 30.879334 12.972187
2006-03-21 08:54:17 51°20.682 2°54.577 -999 2.903602 30.869628 12.972187
2006-03-21 08:54:22 51°20.699 2°54.579 -999 2.904843 30.885113 12.938477
2006-03-21 08:54:27 51°20.716 2°54.58 -999 2.90443 30.881186 12.938477
2006-03-21 08:54:32 51°20.731 2°54.581 -999 2.903809 30.87298 12.938477
2006-03-21 08:54:37 51°20.747 2°54.583 -999 2.904947 30.886327 12.972187
2006-03-21 08:54:41 51°20.761 2°54.585 -999 2.905774 30.896961 12.938477
2006-03-21 08:54:47 51°20.781 2°54.587 -999 2.905774 30.896961 12.938477
2006-03-21 08:54:52 51°20.798 2°54.589 -999 2.907532 30.916663 12.938477
2006-03-21 08:54:57 51°20.815 2°54.591 -999 2.907945 30.919664 12.938477
2006-03-21 08:55:02 51°20.83 2°54.593 -999 2.908463 30.924804 12.938477
2006-03-21 08:55:07 51°20.847 2°54.596 -999 2.908876 30.928731 12.938477
2006-03-21 08:55:12 51°20.865 2°54.597 -999 2.908876 30.928731 12.938477
2006-03-21 08:55:17 51°20.881 2°54.6 -999 2.90929 30.93173 12.938477
2006-03-21 08:55:22 51°20.897 2°54.602 -999 2.909703 30.937511 12.938477
2006-03-21 08:55:27 51°20.914 2°54.604 -999 2.910014 30.941152 12.938477
2006-03-21 08:55:32 51°20.931 2°54.606 -999 2.910324 30.943865 12.938477
2006-03-21 08:55:37 51°20.948 2°54.609 -999 2.910324 30.942937 12.938477
2006-03-21 08:55:42 51°20.963 2°54.611 -999 2.910324 30.942937 12.938477
2006-03-21 08:55:47 51°20.982 2°54.614 -999 2.910738 30.948719 12.938477
2006-03-21 08:55:52 51°20.996 2°54.615 -999 2.910944 30.952074 12.938477
2006-03-21 08:55:57 51°21.013 2°54.617 -999 2.911255 30.956642 12.938477
2006-03-21 08:56:01 51°21.026 2°54.62 -999 2.911565 30.959355 12.938477
2006-03-21 08:56:07 51°21.045 2°54.622 -999 2.911978 30.96421 12.938477
2006-03-21 08:56:12 51°21.061 2°54.625 -999 2.911978 30.96421 12.938477
2006-03-21 08:56:17 51°21.078 2°54.627 -999 2.912392 30.970921 12.938477
2006-03-21 08:56:22 51°21.094 2°54.629 -999 2.912599 30.973349 12.938477
2006-03-21 08:56:27 51°21.111 2°54.631 -999 2.913013 30.976346 12.938477
2006-03-21 08:56:32 51°21.129 2°54.634 -999 2.913426 30.98213 12.938477
2006-03-21 08:56:37 51°21.145 2°54.636 -999 2.913737 30.98763 12.938477
2006-03-21 08:56:42 51°21.161 2°54.638 -999 2.91415 30.995273 12.938477
2006-03-21 08:56:47 51°21.179 2°54.641 -999 2.91415 30.995273 12.938477
2006-03-21 08:56:52 51°21.195 2°54.643 -999 2.91446 31.000774 12.938477
2006-03-21 08:56:57 51°21.211 2°54.646 -999 2.914771 31.006276 12.938477
2006-03-21 08:57:01 51°21.225 2°54.647 -999 2.915081 31.009919 12.938477
2006-03-21 08:57:07 51°21.244 2°54.65 -999 2.915391 31.014491 12.938477
2006-03-21 08:57:12 51°21.261 2°54.652 -999 2.915391 31.014491 12.938477
2006-03-21 08:57:17 51°21.278 2°54.655 -999 2.915598 31.01599 12.938477
2006-03-21 08:57:21 51°21.29 2°54.657 -999 2.916012 31.019917 12.938477
2006-03-21 08:57:27 51°21.311 2°54.66 -999 2.916425 31.025704 12.938477
2006-03-21 08:57:32 51°21.328 2°54.663 -999 2.916839 31.031492 12.938477
2006-03-21 08:57:37 51°21.343 2°54.665 -999 2.917253 31.03728 12.938477
2006-03-21 08:57:41 51°21.357 2°54.666 -999 2.917253 31.03728 12.938477
2006-03-21 08:57:47 51°21.377 2°54.669 -999 2.91777 31.043352 12.938477
2006-03-21 08:57:52 51°21.395 2°54.672 -999 2.91808 31.046064 12.972187
2006-03-21 08:57:57 51°21.41 2°54.674 -999 2.918494 31.051853 12.972187
2006-03-21 08:58:02 51°21.426 2°54.677 -999 2.918907 31.057643 12.972187
2006-03-21 08:58:07 51°21.444 2°54.68 -999 2.919321 31.063433 12.972187
2006-03-21 08:58:12 51°21.46 2°54.682 -999 2.919735 31.069223 12.972187
2006-03-21 08:58:17 51°21.477 2°54.685 -999 2.919735 31.069223 12.972187
2006-03-21 08:58:21 51°21.491 2°54.687 -999 2.920148 31.074082 12.972187
2006-03-21 08:58:27 51°21.511 2°54.691 -999 2.920562 31.079873 12.972187
2006-03-21 08:58:32 51°21.528 2°54.695 -999 2.920976 31.085665 12.972187
2006-03-21 08:58:37 51°21.546 2°54.697 -999 2.921493 31.092671 12.972187
2006-03-21 08:58:41 51°21.558 2°54.7 -999 2.922113 31.098095 12.972187
2006-03-21 08:58:47 51°21.578 2°54.704 -999 2.922113 31.098095 12.972187
2006-03-21 08:58:52 51°21.596 2°54.706 -999 2.922734 31.106318 12.972187
2006-03-21 08:58:57 51°21.611 2°54.709 -999 2.923251 31.114259 12.972187
2006-03-21 08:59:01 51°21.624 2°54.711 -999 2.923664 31.119119 12.972187
2006-03-21 08:59:07 51°21.646 2°54.714 -999 2.924181 31.125195 12.972187
2006-03-21 08:59:12 51°21.662 2°54.716 -999 2.924181 31.125195 12.972187
2006-03-21 08:59:17 51°21.679 2°54.719 -999 2.924698 31.130336 12.972187
2006-03-21 08:59:21 51°21.692 2°54.722 -999 2.925112 31.134263 12.972187
2006-03-21 08:59:27 51°21.713 2°54.726 -999 2.925526 31.139123 12.972187
2006-03-21 08:59:32 51°21.729 2°54.728 -999 2.926043 31.146133 12.972187
2006-03-21 08:59:37 51°21.746 2°54.731 -999 2.92656 31.154078 12.972187
2006-03-21 08:59:41 51°21.76 2°54.733 -999 2.927077 31.160155 13.005896
2006-03-21 08:59:47 51°21.779 2°54.737 -999 2.927077 31.160155 13.005896
2006-03-21 08:59:52 51°21.796 2°54.739 -999 2.927801 31.169597 12.972187
2006-03-21 08:59:57 51°21.812 2°54.742 -999 2.928732 31.179601 12.972187
2006-03-21 09:00:02 51°21.829 2°54.745 -999 2.929559 31.19026 12.972187
2006-03-21 09:00:07 51°21.845 2°54.748 -999 2.930179 31.197553 12.972187
2006-03-21 09:00:12 51°21.863 2°54.75 -999 2.9308 31.205783 12.972187
2006-03-21 09:00:17 51°21.879 2°54.753 -999 2.9308 31.205783 12.972187
2006-03-21 09:00:21 51°21.892 2°54.754 -999 2.931214 31.211582 12.972187
2006-03-21 09:00:27 51°21.912 2°54.758 -999 2.931524 31.215229 13.005896
2006-03-21 09:00:31 51°21.926 2°54.759 -999 2.931834 31.218876 13.005896
2006-03-21 09:00:37 51°21.946 2°54.763 -999 2.932144 31.221587 13.005896
2006-03-21 09:00:41 51°21.96 2°54.766 -999 2.932144 31.221587 13.005896
2006-03-21 09:00:47 51°21.979 2°54.769 -999 2.932351 31.222144 13.005896
2006-03-21 09:00:52 51°21.997 2°54.771 -999 2.932972 31.232249 13.005896
2006-03-21 09:00:57 51°22.013 2°54.774 -999 2.933385 31.238987 13.005896
2006-03-21 09:01:01 51°22.026 2°54.776 -999 2.933799 31.241976 13.005896
2006-03-21 09:01:07 51°22.047 2°54.779 -999 2.934213 31.245902 13.005896
2006-03-21 09:01:12 51°22.063 2°54.782 -999 2.934213 31.245902 13.005896
2006-03-21 09:01:17 51°22.08 2°54.785 -999 2.93473 31.251981 13.005896
2006-03-21 09:01:21 51°22.093 2°54.787 -999 2.935247 31.258999 13.039606
2006-03-21 09:01:27 51°22.112 2°54.789 -999 2.935764 31.265078 13.039606
2006-03-21 09:01:32 51°22.13 2°54.792 -999 2.936281 31.271158 13.039606
2006-03-21 09:01:37 51°22.147 2°54.795 -999 2.936695 31.276961 13.039606
2006-03-21 09:01:42 51°22.163 2°54.797 -999 2.937315 31.284257 13.039606
2006-03-21 09:01:47 51°22.181 2°54.8 -999 2.937315 31.284257 13.039606
2006-03-21 09:01:52 51°22.198 2°54.802 -999 2.938246 31.297081 13.039606
2006-03-21 09:01:57 51°22.214 2°54.805 -999 2.939487 31.313555 13.039606
2006-03-21 09:02:01 51°22.227 2°54.807 -999 2.940314 31.324227 13.005896
2006-03-21 09:02:07 51°22.248 2°54.81 -999 2.940935 31.330585 13.005896
2006-03-21 09:02:12 51°22.264 2°54.812 -999 2.941452 31.336668 13.005896
2006-03-21 09:02:17 51°22.28 2°54.814 -999 2.941452 31.336668 13.005896
2006-03-21 09:02:21 51°22.293 2°54.817 -999 2.941866 31.341534 13.005896
2006-03-21 09:02:27 51°22.314 2°54.82 -999 2.942486 31.347893 12.972187
2006-03-21 09:02:31 51°22.328 2°54.822 -999 2.94321 31.356408 12.972187
2006-03-21 09:02:37 51°22.347 2°54.825 -999 2.944141 31.367358 13.005896
2006-03-21 09:02:41 51°22.36 2°54.828 -999 2.944141 31.367358 13.005896
2006-03-21 09:02:47 51°22.38 2°54.831 -999 2.945795 31.386825 13.039606
2006-03-21 09:02:52 51°22.396 2°54.835 -999 2.94714 31.400759 13.039606
2006-03-21 09:02:57 51°22.413 2°54.837 -999 2.948691 31.417125 13.005896
2006-03-21 09:03:02 51°22.429 2°54.841 -999 2.950553 31.436199 12.972187
2006-03-21 09:03:07 51°22.444 2°54.845 -999 2.952621 31.457704 12.938477
2006-03-21 09:03:11 51°22.457 2°54.85 -999 2.955 31.481915 12.938477
2006-03-21 09:03:17 51°22.476 2°54.859 -999 2.955 31.481915 12.938477
2006-03-21 09:03:22 51°22.491 2°54.868 -999 2.956965 31.503146 12.904768
2006-03-21 09:03:27 51°22.507 2°54.879 -999 2.958619 31.51978 12.871059
2006-03-21 09:03:32 51°22.521 2°54.891 -999 2.95986 31.5306 12.871059
2006-03-21 09:03:37 51°22.533 2°54.902 -999 2.961205 31.542635 12.871059
2006-03-21 09:03:41 51°22.544 2°54.913 -999 2.962342 31.555073 12.837349
2006-03-21 09:03:47 51°22.56 2°54.931 -999 2.962342 31.555073 12.837349
2006-03-21 09:03:52 51°22.573 2°54.946 -999 2.963377 31.564402 12.837349
2006-03-21 09:03:57 51°22.585 2°54.962 -999 2.964101 31.57008 12.80364
2006-03-21 09:04:02 51°22.596 2°54.977 -999 2.964825 31.578596 12.80364
2006-03-21 09:04:07 51°22.609 2°54.995 -999 2.965342 31.58468 12.80364
2006-03-21 09:04:12 51°22.62 2°55.012 -999 2.965342 31.58468 12.80364
2006-03-21 09:04:17 51°22.632 2°55.03 -999 2.965755 31.587653 12.80364
2006-03-21 09:04:21 51°22.641 2°55.045 -999 2.966169 31.593467 12.80364
2006-03-21 09:04:27 51°22.654 2°55.066 -999 2.966583 31.599281 12.80364
2006-03-21 09:04:32 51°22.664 2°55.084 -999 2.966996 31.605096 12.80364
2006-03-21 09:04:37 51°22.676 2°55.105 -999 2.967203 31.607529 12.80364
2006-03-21 09:04:42 51°22.686 2°55.121 -999 2.967203 31.607529 12.80364
2006-03-21 09:04:47 51°22.695 2°55.138 -999 2.967514 31.613075 12.80364
2006-03-21 09:04:52 51°22.706 2°55.158 -999 2.967824 31.61957 12.80364
2006-03-21 09:04:57 51°22.718 2°55.176 -999 2.967927 31.620787 12.80364
2006-03-21 09:05:02 51°22.728 2°55.193 -999 2.967927 31.618891 12.80364
2006-03-21 09:05:07 51°22.738 2°55.212 -999 2.967927 31.617943 12.80364
2006-03-21 09:05:12 51°22.75 2°55.23 -999 2.968134 31.621325 12.80364
2006-03-21 09:05:17 51°22.761 2°55.247 -999 2.968134 31.621325 12.80364
2006-03-21 09:05:21 51°22.77 2°55.262 -999 2.968134 31.621325 12.80364
2006-03-21 09:05:27 51°22.783 2°55.284 -999 2.968238 31.623491 12.80364
2006-03-21 09:05:32 51°22.794 2°55.303 -999 2.968444 31.627821 12.80364
2006-03-21 09:05:37 51°22.805 2°55.321 -999 2.968858 31.631742 12.80364
2006-03-21 09:05:42 51°22.816 2°55.342 -999 2.969168 31.634445 12.80364
2006-03-21 09:05:47 51°22.827 2°55.359 -999 2.969168 31.634445 12.80364
2006-03-21 09:05:52 51°22.837 2°55.378 -999 2.969479 31.638096 12.80364
2006-03-21 09:05:57 51°22.848 2°55.396 -999 2.969789 31.643645 12.80364
2006-03-21 09:06:02 51°22.859 2°55.415 -999 2.969996 31.647977 12.80364
2006-03-21 09:06:07 51°22.87 2°55.433 -999 2.970099 31.650144 12.80364
2006-03-21 09:06:12 51°22.881 2°55.451 -999 2.970099 31.650144 12.80364
2006-03-21 09:06:17 51°22.892 2°55.469 -999 2.969892 31.64676 12.80364
2006-03-21 09:06:21 51°22.901 2°55.484 -999 2.969789 31.645543 12.76993
2006-03-21 09:06:27 51°22.914 2°55.507 -999 2.969686 31.644325 12.76993
2006-03-21 09:06:32 51°22.925 2°55.526 -999 2.969479 31.640942 12.76993
2006-03-21 09:06:37 51°22.935 2°55.543 -999 2.969375 31.638776 12.76993
2006-03-21 09:06:42 51°22.947 2°55.563 -999 2.969375 31.638776 12.76993
2006-03-21 09:06:47 51°22.957 2°55.581 -999 2.969272 31.638507 12.76993
2006-03-21 09:06:52 51°22.968 2°55.601 -999 2.969375 31.639725 12.76993
2006-03-21 09:06:57 51°22.979 2°55.62 -999 2.969582 31.643108 12.76993
2006-03-21 09:07:01 51°22.987 2°55.636 -999 2.969686 31.647172 12.80364
2006-03-21 09:07:07 51°23 2°55.656 -999 2.969686 31.647172 12.80364
2006-03-21 09:07:12 51°23.011 2°55.674 -999 2.969789 31.645543 12.76993
2006-03-21 09:07:17 51°23.022 2°55.693 -999 2.969789 31.645543 12.76993
2006-03-21 09:07:22 51°23.033 2°55.712 -999 2.969996 31.64608 12.80364
2006-03-21 09:07:27 51°23.044 2°55.729 -999 2.970099 31.647297 12.80364
2006-03-21 09:07:32 51°23.055 2°55.747 -999 2.970203 31.649463 12.80364
2006-03-21 09:07:37 51°23.065 2°55.766 -999 2.970203 31.649463 12.80364
2006-03-21 09:07:42 51°23.076 2°55.785 -999 2.970203 31.647565 12.80364
2006-03-21 09:07:47 51°23.087 2°55.804 -999 2.970203 31.647565 12.80364
2006-03-21 09:07:52 51°23.097 2°55.822 -999 2.970099 31.647297 12.80364
2006-03-21 09:07:57 51°23.108 2°55.841 -999 2.970203 31.647565 12.80364
2006-03-21 09:08:02 51°23.118 2°55.859 -999 2.970203 31.647565 12.80364
2006-03-21 09:08:07 51°23.13 2°55.878 -999 2.970409 31.649051 12.80364
2006-03-21 09:08:12 51°23.14 2°55.896 -999 2.970409 31.649051 12.80364
2006-03-21 09:08:17 51°23.151 2°55.914 -999 2.97072 31.652702 12.80364
2006-03-21 09:08:22 51°23.162 2°55.932 -999 2.970927 31.657035 12.80364
2006-03-21 09:08:27 51°23.174 2°55.952 -999 2.971133 31.660419 12.80364
2006-03-21 09:08:32 51°23.184 2°55.97 -999 2.97134 31.663803 12.80364
2006-03-21 09:08:37 51°23.196 2°55.989 -999 2.971444 31.663122 12.80364
2006-03-21 09:08:41 51°23.205 2°56.004 -999 2.971547 31.664339 12.80364
2006-03-21 09:08:47 51°23.218 2°56.025 -999 2.971547 31.664339 12.80364
2006-03-21 09:08:52 51°23.228 2°56.044 -999 2.971754 31.666774 12.80364
2006-03-21 09:08:57 51°23.24 2°56.064 -999 2.971857 31.667991 12.80364
2006-03-21 09:09:01 51°23.249 2°56.078 -999 2.972064 31.668527 12.80364
2006-03-21 09:09:07 51°23.26 2°56.1 -999 2.972168 31.668795 12.80364
2006-03-21 09:09:12 51°23.271 2°56.121 -999 2.972478 31.672447 12.80364
2006-03-21 09:09:17 51°23.28 2°56.138 -999 2.972478 31.672447 12.80364
2006-03-21 09:09:22 51°23.29 2°56.157 -999 2.972685 31.677731 12.837349
2006-03-21 09:09:27 51°23.299 2°56.176 -999 2.972685 31.677731 12.837349
2006-03-21 09:09:32 51°23.31 2°56.195 -999 2.972892 31.680166 12.837349
2006-03-21 09:09:37 51°23.321 2°56.214 -999 2.973099 31.6826 12.837349
2006-03-21 09:09:42 51°23.332 2°56.231 -999 2.973099 31.6826 12.837349
2006-03-21 09:09:47 51°23.343 2°56.251 -999 2.972995 31.683283 12.837349
2006-03-21 09:09:52 51°23.353 2°56.27 -999 2.973099 31.684501 12.837349
2006-03-21 09:09:57 51°23.364 2°56.29 -999 2.972995 31.684233 12.837349
2006-03-21 09:10:02 51°23.374 2°56.309 -999 2.973099 31.684501 12.837349
2006-03-21 09:10:07 51°23.385 2°56.33 -999 2.973202 31.685718 12.837349
2006-03-21 09:10:12 51°23.394 2°56.346 -999 2.973202 31.685718 12.837349
2006-03-21 09:10:17 51°23.405 2°56.366 -999 2.973409 31.688153 12.837349
2006-03-21 09:10:22 51°23.415 2°56.383 -999 2.973512 31.68842 12.837349
2006-03-21 09:10:27 51°23.426 2°56.403 -999 2.973719 31.690856 12.837349
2006-03-21 09:10:32 51°23.437 2°56.422 -999 2.973823 31.692073 12.837349
2006-03-21 09:10:37 51°23.448 2°56.439 -999 2.973823 31.692073 12.837349
2006-03-21 09:10:42 51°23.457 2°56.457 -999 2.973512 31.68652 12.837349
2006-03-21 09:10:47 51°23.468 2°56.477 -999 2.973512 31.68652 12.837349
2006-03-21 09:10:52 51°23.477 2°56.496 -999 2.973719 31.688955 12.837349
2006-03-21 09:10:57 51°23.488 2°56.515 -999 2.973823 31.690173 12.837349
2006-03-21 09:11:02 51°23.498 2°56.533 -999 2.973823 31.689222 12.837349
2006-03-21 09:11:07 51°23.509 2°56.552 -999 2.974029 31.691657 12.837349
2006-03-21 09:11:12 51°23.52 2°56.571 -999 2.97434 31.69531 12.837349
2006-03-21 09:11:17 51°23.531 2°56.589 -999 2.97434 31.69531 12.837349
2006-03-21 09:11:22 51°23.541 2°56.609 -999 2.974133 31.692875 12.837349
2006-03-21 09:11:27 51°23.552 2°56.627 -999 2.974546 31.697745 12.837349
2006-03-21 09:11:32 51°23.562 2°56.647 -999 2.97496 31.704516 12.837349
2006-03-21 09:11:37 51°23.572 2°56.666 -999 2.975477 31.712506 12.837349
2006-03-21 09:11:42 51°23.582 2°56.686 -999 2.975477 31.712506 12.837349
2006-03-21 09:11:47 51°23.591 2°56.707 -999 2.975994 31.718594 12.837349
2006-03-21 09:11:52 51°23.601 2°56.724 -999 2.976512 31.723731 12.837349